<?xml version="1.0" encoding="UTF-8" standalone="no" ?>
<gpx xmlns="http://www.topografix.com/GPX/1/1" creator="MapSource 6.11.6" version="1.1" xmlns:xsi="http://www.w3.org/2001/XMLSchema-instance" xsi:schemaLocation="http://www.topografix.com/GPX/1/1 http://www.topografix.com/GPX/1/1/gpx.xsd">

  <metadata>
    <link href="http://www.garmin.com">
      <text>Garmin International</text>
    </link>
    <time>2009-06-20T15:38:06Z</time>
    <bounds maxlat="50.664223" maxlon="6.413413" minlat="50.632263" minlon="6.364005"/>
  </metadata>

  <trk>
    <name>Forellenzucht</name>
    <link href="http://www.gpsies.com/map.do?fileId=fsgyyzkdknrjnxjp"/>
    <extensions>
      <gpxx:TrackExtension xmlns:gpxx="http://www.garmin.com/xmlschemas/GpxExtensions/v3" xmlns:xsi="http://www.w3.org/2001/XMLSchema-instance" xsi:schemaLocation="http://www.garmin.com/xmlschemas/GpxExtensions/v3 http://www.garmin.com/xmlschemas/GpxExtensions/v3/GpxExtensionsv3.xsd">
        <gpxx:DisplayColor>White</gpxx:DisplayColor>
      </gpxx:TrackExtension>
    </extensions>
    <trkseg>
      <trkpt lat="50.664223" lon="6.409080">
        <ele>437.000000</ele>
        <time>2009-06-20T17:41:56Z</time>
      </trkpt>
      <trkpt lat="50.664169" lon="6.408974">
        <ele>437.000000</ele>
        <time>2009-06-20T17:42:00Z</time>
      </trkpt>
      <trkpt lat="50.664119" lon="6.408868">
        <ele>437.000000</ele>
        <time>2009-06-20T17:42:03Z</time>
      </trkpt>
      <trkpt lat="50.664056" lon="6.408790">
        <ele>437.000000</ele>
        <time>2009-06-20T17:42:06Z</time>
      </trkpt>
      <trkpt lat="50.663971" lon="6.408669">
        <ele>435.000000</ele>
        <time>2009-06-20T17:42:11Z</time>
      </trkpt>
      <trkpt lat="50.663868" lon="6.408527">
        <ele>435.000000</ele>
        <time>2009-06-20T17:42:16Z</time>
      </trkpt>
      <trkpt lat="50.663773" lon="6.408386">
        <ele>435.000000</ele>
        <time>2009-06-20T17:42:22Z</time>
      </trkpt>
      <trkpt lat="50.663683" lon="6.408230">
        <ele>442.000000</ele>
        <time>2009-06-20T17:42:27Z</time>
      </trkpt>
      <trkpt lat="50.663612" lon="6.408095">
        <ele>442.000000</ele>
        <time>2009-06-20T17:42:31Z</time>
      </trkpt>
      <trkpt lat="50.663535" lon="6.407961">
        <ele>442.000000</ele>
        <time>2009-06-20T17:42:36Z</time>
      </trkpt>
      <trkpt lat="50.663441" lon="6.407783">
        <ele>441.000000</ele>
        <time>2009-06-20T17:42:42Z</time>
      </trkpt>
      <trkpt lat="50.663378" lon="6.407557">
        <ele>441.000000</ele>
        <time>2009-06-20T17:42:48Z</time>
      </trkpt>
      <trkpt lat="50.663351" lon="6.407387">
        <ele>441.000000</ele>
        <time>2009-06-20T17:42:53Z</time>
      </trkpt>
      <trkpt lat="50.663365" lon="6.407245">
        <ele>441.000000</ele>
        <time>2009-06-20T17:42:56Z</time>
      </trkpt>
      <trkpt lat="50.663360" lon="6.407245">
        <ele>441.000000</ele>
        <time>2009-06-20T17:42:56Z</time>
      </trkpt>
      <trkpt lat="50.663306" lon="6.407174">
        <ele>441.000000</ele>
        <time>2009-06-20T17:42:59Z</time>
      </trkpt>
      <trkpt lat="50.663207" lon="6.407082">
        <ele>440.000000</ele>
        <time>2009-06-20T17:43:04Z</time>
      </trkpt>
      <trkpt lat="50.663127" lon="6.406976">
        <ele>440.000000</ele>
        <time>2009-06-20T17:43:08Z</time>
      </trkpt>
      <trkpt lat="50.663122" lon="6.406976">
        <ele>440.000000</ele>
        <time>2009-06-20T17:43:08Z</time>
      </trkpt>
      <trkpt lat="50.663037" lon="6.406862">
        <ele>440.000000</ele>
        <time>2009-06-20T17:43:13Z</time>
      </trkpt>
      <trkpt lat="50.662942" lon="6.406713">
        <ele>440.000000</ele>
        <time>2009-06-20T17:43:18Z</time>
      </trkpt>
      <trkpt lat="50.662866" lon="6.406558">
        <ele>448.000000</ele>
        <time>2009-06-20T17:43:23Z</time>
      </trkpt>
      <trkpt lat="50.662866" lon="6.406551">
        <ele>448.000000</ele>
        <time>2009-06-20T17:43:23Z</time>
      </trkpt>
      <trkpt lat="50.662790" lon="6.406423">
        <ele>448.000000</ele>
        <time>2009-06-20T17:43:28Z</time>
      </trkpt>
      <trkpt lat="50.662718" lon="6.406295">
        <ele>448.000000</ele>
        <time>2009-06-20T17:43:32Z</time>
      </trkpt>
      <trkpt lat="50.662648" lon="6.406192">
        <ele>449.000000</ele>
        <time>2009-06-20T17:43:36Z</time>
      </trkpt>
      <trkpt lat="50.662648" lon="6.406200">
        <ele>449.000000</ele>
        <time>2009-06-20T17:43:36Z</time>
      </trkpt>
      <trkpt lat="50.662532" lon="6.406433">
        <ele>448.000000</ele>
        <time>2009-06-20T17:43:44Z</time>
      </trkpt>
      <trkpt lat="50.662527" lon="6.406433">
        <ele>448.000000</ele>
        <time>2009-06-20T17:43:44Z</time>
      </trkpt>
      <trkpt lat="50.662442" lon="6.406603">
        <ele>448.000000</ele>
        <time>2009-06-20T17:43:49Z</time>
      </trkpt>
      <trkpt lat="50.662442" lon="6.406611">
        <ele>448.000000</ele>
        <time>2009-06-20T17:43:49Z</time>
      </trkpt>
      <trkpt lat="50.662365" lon="6.406731">
        <ele>448.000000</ele>
        <time>2009-06-20T17:43:54Z</time>
      </trkpt>
      <trkpt lat="50.662361" lon="6.406745">
        <ele>448.000000</ele>
        <time>2009-06-20T17:43:54Z</time>
      </trkpt>
      <trkpt lat="50.662249" lon="6.406944">
        <ele>448.000000</ele>
        <time>2009-06-20T17:44:01Z</time>
      </trkpt>
      <trkpt lat="50.662123" lon="6.407184">
        <ele>448.000000</ele>
        <time>2009-06-20T17:44:09Z</time>
      </trkpt>
      <trkpt lat="50.661988" lon="6.407404">
        <ele>454.000000</ele>
        <time>2009-06-20T17:44:17Z</time>
      </trkpt>
      <trkpt lat="50.661880" lon="6.407567">
        <ele>454.000000</ele>
        <time>2009-06-20T17:44:23Z</time>
      </trkpt>
      <trkpt lat="50.661750" lon="6.407383">
        <ele>454.000000</ele>
        <time>2009-06-20T17:44:30Z</time>
      </trkpt>
      <trkpt lat="50.661620" lon="6.407177">
        <ele>454.000000</ele>
        <time>2009-06-20T17:44:37Z</time>
      </trkpt>
      <trkpt lat="50.661521" lon="6.407007">
        <ele>455.000000</ele>
        <time>2009-06-20T17:44:43Z</time>
      </trkpt>
      <trkpt lat="50.661440" lon="6.406880">
        <ele>455.000000</ele>
        <time>2009-06-20T17:44:47Z</time>
      </trkpt>
      <trkpt lat="50.661436" lon="6.406880">
        <ele>455.000000</ele>
        <time>2009-06-20T17:44:48Z</time>
      </trkpt>
      <trkpt lat="50.661337" lon="6.406738">
        <ele>455.000000</ele>
        <time>2009-06-20T17:44:53Z</time>
      </trkpt>
      <trkpt lat="50.661229" lon="6.406603">
        <ele>458.000000</ele>
        <time>2009-06-20T17:44:58Z</time>
      </trkpt>
      <trkpt lat="50.661126" lon="6.406476">
        <ele>458.000000</ele>
        <time>2009-06-20T17:45:04Z</time>
      </trkpt>
      <trkpt lat="50.661079" lon="6.406309">
        <ele>458.000000</ele>
        <time>2009-06-20T17:45:08Z</time>
      </trkpt>
      <trkpt lat="50.661034" lon="6.406146">
        <ele>460.000000</ele>
        <time>2009-06-20T17:45:13Z</time>
      </trkpt>
      <trkpt lat="50.661029" lon="6.406146">
        <ele>460.000000</ele>
        <time>2009-06-20T17:45:13Z</time>
      </trkpt>
      <trkpt lat="50.660984" lon="6.405983">
        <ele>460.000000</ele>
        <time>2009-06-20T17:45:17Z</time>
      </trkpt>
      <trkpt lat="50.660980" lon="6.405983">
        <ele>460.000000</ele>
        <time>2009-06-20T17:45:18Z</time>
      </trkpt>
      <trkpt lat="50.660953" lon="6.405828">
        <ele>460.000000</ele>
        <time>2009-06-20T17:45:22Z</time>
      </trkpt>
      <trkpt lat="50.660908" lon="6.405707">
        <ele>460.000000</ele>
        <time>2009-06-20T17:45:25Z</time>
      </trkpt>
      <trkpt lat="50.660836" lon="6.405523">
        <ele>460.000000</ele>
        <time>2009-06-20T17:45:31Z</time>
      </trkpt>
      <trkpt lat="50.660791" lon="6.405303">
        <ele>462.000000</ele>
        <time>2009-06-20T17:45:37Z</time>
      </trkpt>
      <trkpt lat="50.660769" lon="6.405126">
        <ele>462.000000</ele>
        <time>2009-06-20T17:45:41Z</time>
      </trkpt>
      <trkpt lat="50.660791" lon="6.404963">
        <ele>462.000000</ele>
        <time>2009-06-20T17:45:45Z</time>
      </trkpt>
      <trkpt lat="50.660827" lon="6.404772">
        <ele>462.000000</ele>
        <time>2009-06-20T17:45:51Z</time>
      </trkpt>
      <trkpt lat="50.660890" lon="6.404552">
        <ele>464.000000</ele>
        <time>2009-06-20T17:45:57Z</time>
      </trkpt>
      <trkpt lat="50.660962" lon="6.404304">
        <ele>464.000000</ele>
        <time>2009-06-20T17:46:04Z</time>
      </trkpt>
      <trkpt lat="50.661025" lon="6.404120">
        <ele>464.000000</ele>
        <time>2009-06-20T17:46:09Z</time>
      </trkpt>
      <trkpt lat="50.661092" lon="6.403915">
        <ele>464.000000</ele>
        <time>2009-06-20T17:46:15Z</time>
      </trkpt>
      <trkpt lat="50.661200" lon="6.403617">
        <ele>466.000000</ele>
        <time>2009-06-20T17:46:23Z</time>
      </trkpt>
      <trkpt lat="50.661285" lon="6.403376">
        <ele>461.000000</ele>
        <time>2009-06-20T17:46:30Z</time>
      </trkpt>
      <trkpt lat="50.661254" lon="6.403326">
        <ele>461.000000</ele>
        <time>2009-06-20T17:46:32Z</time>
      </trkpt>
      <trkpt lat="50.661141" lon="6.403263">
        <ele>466.000000</ele>
        <time>2009-06-20T17:46:37Z</time>
      </trkpt>
      <trkpt lat="50.660998" lon="6.403135">
        <ele>466.000000</ele>
        <time>2009-06-20T17:46:44Z</time>
      </trkpt>
      <trkpt lat="50.660872" lon="6.402972">
        <ele>466.000000</ele>
        <time>2009-06-20T17:46:50Z</time>
      </trkpt>
      <trkpt lat="50.660706" lon="6.402795">
        <ele>467.000000</ele>
        <time>2009-06-20T17:46:58Z</time>
      </trkpt>
      <trkpt lat="50.660580" lon="6.402632">
        <ele>467.000000</ele>
        <time>2009-06-20T17:47:05Z</time>
      </trkpt>
      <trkpt lat="50.660477" lon="6.402497">
        <ele>467.000000</ele>
        <time>2009-06-20T17:47:10Z</time>
      </trkpt>
      <trkpt lat="50.660369" lon="6.402342">
        <ele>470.000000</ele>
        <time>2009-06-20T17:47:16Z</time>
      </trkpt>
      <trkpt lat="50.660185" lon="6.402072">
        <ele>470.000000</ele>
        <time>2009-06-20T17:47:26Z</time>
      </trkpt>
      <trkpt lat="50.660063" lon="6.401867">
        <ele>470.000000</ele>
        <time>2009-06-20T17:47:33Z</time>
      </trkpt>
      <trkpt lat="50.659920" lon="6.401668">
        <ele>470.000000</ele>
        <time>2009-06-20T17:47:41Z</time>
      </trkpt>
      <trkpt lat="50.659771" lon="6.401442">
        <ele>470.000000</ele>
        <time>2009-06-20T17:47:49Z</time>
      </trkpt>
      <trkpt lat="50.659664" lon="6.401272">
        <ele>470.000000</ele>
        <time>2009-06-20T17:47:55Z</time>
      </trkpt>
      <trkpt lat="50.659520" lon="6.401045">
        <ele>477.000000</ele>
        <time>2009-06-20T17:48:03Z</time>
      </trkpt>
      <trkpt lat="50.659376" lon="6.400889">
        <ele>477.000000</ele>
        <time>2009-06-20T17:48:10Z</time>
      </trkpt>
      <trkpt lat="50.659236" lon="6.400769">
        <ele>477.000000</ele>
        <time>2009-06-20T17:48:17Z</time>
      </trkpt>
      <trkpt lat="50.659129" lon="6.400712">
        <ele>477.000000</ele>
        <time>2009-06-20T17:48:21Z</time>
      </trkpt>
      <trkpt lat="50.659030" lon="6.400620">
        <ele>477.000000</ele>
        <time>2009-06-20T17:48:26Z</time>
      </trkpt>
      <trkpt lat="50.658909" lon="6.400507">
        <ele>477.000000</ele>
        <time>2009-06-20T17:48:31Z</time>
      </trkpt>
      <trkpt lat="50.658778" lon="6.400380">
        <ele>478.000000</ele>
        <time>2009-06-20T17:48:37Z</time>
      </trkpt>
      <trkpt lat="50.658648" lon="6.400273">
        <ele>480.000000</ele>
        <time>2009-06-20T17:48:43Z</time>
      </trkpt>
      <trkpt lat="50.658572" lon="6.400294">
        <ele>480.000000</ele>
        <time>2009-06-20T17:48:46Z</time>
      </trkpt>
      <trkpt lat="50.658518" lon="6.400387">
        <ele>480.000000</ele>
        <time>2009-06-20T17:48:50Z</time>
      </trkpt>
      <trkpt lat="50.658518" lon="6.400394">
        <ele>480.000000</ele>
        <time>2009-06-20T17:48:50Z</time>
      </trkpt>
      <trkpt lat="50.658464" lon="6.400486">
        <ele>479.000000</ele>
        <time>2009-06-20T17:48:53Z</time>
      </trkpt>
      <trkpt lat="50.658405" lon="6.400585">
        <ele>479.000000</ele>
        <time>2009-06-20T17:48:56Z</time>
      </trkpt>
      <trkpt lat="50.658298" lon="6.400790">
        <ele>479.000000</ele>
        <time>2009-06-20T17:49:03Z</time>
      </trkpt>
      <trkpt lat="50.658293" lon="6.400805">
        <ele>479.000000</ele>
        <time>2009-06-20T17:49:04Z</time>
      </trkpt>
      <trkpt lat="50.658208" lon="6.400975">
        <ele>479.000000</ele>
        <time>2009-06-20T17:49:09Z</time>
      </trkpt>
      <trkpt lat="50.658118" lon="6.401116">
        <ele>479.000000</ele>
        <time>2009-06-20T17:49:14Z</time>
      </trkpt>
      <trkpt lat="50.658051" lon="6.400953">
        <ele>479.000000</ele>
        <time>2009-06-20T17:49:19Z</time>
      </trkpt>
      <trkpt lat="50.657934" lon="6.400819">
        <ele>479.000000</ele>
        <time>2009-06-20T17:49:25Z</time>
      </trkpt>
      <trkpt lat="50.657808" lon="6.400670">
        <ele>477.000000</ele>
        <time>2009-06-20T17:49:31Z</time>
      </trkpt>
      <trkpt lat="50.657741" lon="6.400528">
        <ele>477.000000</ele>
        <time>2009-06-20T17:49:36Z</time>
      </trkpt>
      <trkpt lat="50.657736" lon="6.400528">
        <ele>477.000000</ele>
        <time>2009-06-20T17:49:36Z</time>
      </trkpt>
      <trkpt lat="50.657642" lon="6.400500">
        <ele>477.000000</ele>
        <time>2009-06-20T17:49:40Z</time>
      </trkpt>
      <trkpt lat="50.657593" lon="6.400450">
        <ele>477.000000</ele>
        <time>2009-06-20T17:49:42Z</time>
      </trkpt>
      <trkpt lat="50.657593" lon="6.400443">
        <ele>477.000000</ele>
        <time>2009-06-20T17:49:42Z</time>
      </trkpt>
      <trkpt lat="50.657611" lon="6.400273">
        <ele>480.000000</ele>
        <time>2009-06-20T17:49:47Z</time>
      </trkpt>
      <trkpt lat="50.657590" lon="6.400177">
        <ele>480.000000</ele>
        <time>2009-06-20T17:49:49Z</time>
      </trkpt>
      <trkpt lat="50.657523" lon="6.400156">
        <ele>480.000000</ele>
        <time>2009-06-20T17:49:52Z</time>
      </trkpt>
      <trkpt lat="50.657415" lon="6.400064">
        <ele>480.000000</ele>
        <time>2009-06-20T17:49:57Z</time>
      </trkpt>
      <trkpt lat="50.657330" lon="6.399887">
        <ele>480.000000</ele>
        <time>2009-06-20T17:50:02Z</time>
      </trkpt>
      <trkpt lat="50.657330" lon="6.399880">
        <ele>480.000000</ele>
        <time>2009-06-20T17:50:03Z</time>
      </trkpt>
      <trkpt lat="50.657182" lon="6.399653">
        <ele>480.000000</ele>
        <time>2009-06-20T17:50:11Z</time>
      </trkpt>
      <trkpt lat="50.657065" lon="6.399426">
        <ele>480.000000</ele>
        <time>2009-06-20T17:50:18Z</time>
      </trkpt>
      <trkpt lat="50.656953" lon="6.399235">
        <ele>480.000000</ele>
        <time>2009-06-20T17:50:25Z</time>
      </trkpt>
      <trkpt lat="50.656800" lon="6.399023">
        <ele>480.000000</ele>
        <time>2009-06-20T17:50:33Z</time>
      </trkpt>
      <trkpt lat="50.656665" lon="6.398874">
        <ele>480.000000</ele>
        <time>2009-06-20T17:50:40Z</time>
      </trkpt>
      <trkpt lat="50.656486" lon="6.398704">
        <ele>483.000000</ele>
        <time>2009-06-20T17:50:48Z</time>
      </trkpt>
      <trkpt lat="50.656288" lon="6.398484">
        <ele>483.000000</ele>
        <time>2009-06-20T17:50:58Z</time>
      </trkpt>
      <trkpt lat="50.656131" lon="6.398293">
        <ele>478.000000</ele>
        <time>2009-06-20T17:51:06Z</time>
      </trkpt>
      <trkpt lat="50.656131" lon="6.398286">
        <ele>478.000000</ele>
        <time>2009-06-20T17:51:06Z</time>
      </trkpt>
      <trkpt lat="50.655991" lon="6.398172">
        <ele>478.000000</ele>
        <time>2009-06-20T17:51:12Z</time>
      </trkpt>
      <trkpt lat="50.655991" lon="6.398180">
        <ele>478.000000</ele>
        <time>2009-06-20T17:51:12Z</time>
      </trkpt>
      <trkpt lat="50.655843" lon="6.398024">
        <ele>478.000000</ele>
        <time>2009-06-20T17:51:19Z</time>
      </trkpt>
      <trkpt lat="50.655677" lon="6.397861">
        <ele>481.000000</ele>
        <time>2009-06-20T17:51:27Z</time>
      </trkpt>
      <trkpt lat="50.655484" lon="6.397705">
        <ele>481.000000</ele>
        <time>2009-06-20T17:51:36Z</time>
      </trkpt>
      <trkpt lat="50.655268" lon="6.397528">
        <ele>474.000000</ele>
        <time>2009-06-20T17:51:46Z</time>
      </trkpt>
      <trkpt lat="50.655093" lon="6.397351">
        <ele>474.000000</ele>
        <time>2009-06-20T17:51:54Z</time>
      </trkpt>
      <trkpt lat="50.654981" lon="6.397223">
        <ele>474.000000</ele>
        <time>2009-06-20T17:52:00Z</time>
      </trkpt>
      <trkpt lat="50.654833" lon="6.397025">
        <ele>478.000000</ele>
        <time>2009-06-20T17:52:07Z</time>
      </trkpt>
      <trkpt lat="50.654608" lon="6.396770">
        <ele>478.000000</ele>
        <time>2009-06-20T17:52:18Z</time>
      </trkpt>
      <trkpt lat="50.654482" lon="6.396600">
        <ele>469.000000</ele>
        <time>2009-06-20T17:52:25Z</time>
      </trkpt>
      <trkpt lat="50.654316" lon="6.396379">
        <ele>469.000000</ele>
        <time>2009-06-20T17:52:34Z</time>
      </trkpt>
      <trkpt lat="50.654146" lon="6.396096">
        <ele>474.000000</ele>
        <time>2009-06-20T17:52:44Z</time>
      </trkpt>
      <trkpt lat="50.653979" lon="6.395834">
        <ele>474.000000</ele>
        <time>2009-06-20T17:52:53Z</time>
      </trkpt>
      <trkpt lat="50.653791" lon="6.395558">
        <ele>474.000000</ele>
        <time>2009-06-20T17:53:03Z</time>
      </trkpt>
      <trkpt lat="50.653705" lon="6.395402">
        <ele>467.000000</ele>
        <time>2009-06-20T17:53:09Z</time>
      </trkpt>
      <trkpt lat="50.653571" lon="6.395154">
        <ele>467.000000</ele>
        <time>2009-06-20T17:53:17Z</time>
      </trkpt>
      <trkpt lat="50.653418" lon="6.394941">
        <ele>467.000000</ele>
        <time>2009-06-20T17:53:25Z</time>
      </trkpt>
      <trkpt lat="50.653297" lon="6.394743">
        <ele>467.000000</ele>
        <time>2009-06-20T17:53:32Z</time>
      </trkpt>
      <trkpt lat="50.653135" lon="6.394559">
        <ele>474.000000</ele>
        <time>2009-06-20T17:53:40Z</time>
      </trkpt>
      <trkpt lat="50.653130" lon="6.394552">
        <ele>474.000000</ele>
        <time>2009-06-20T17:53:40Z</time>
      </trkpt>
      <trkpt lat="50.652964" lon="6.394396">
        <ele>474.000000</ele>
        <time>2009-06-20T17:53:48Z</time>
      </trkpt>
      <trkpt lat="50.652812" lon="6.394219">
        <ele>472.000000</ele>
        <time>2009-06-20T17:53:56Z</time>
      </trkpt>
      <trkpt lat="50.652618" lon="6.394027">
        <ele>472.000000</ele>
        <time>2009-06-20T17:54:05Z</time>
      </trkpt>
      <trkpt lat="50.652407" lon="6.393808">
        <ele>472.000000</ele>
        <time>2009-06-20T17:54:15Z</time>
      </trkpt>
      <trkpt lat="50.652214" lon="6.393588">
        <ele>477.000000</ele>
        <time>2009-06-20T17:54:24Z</time>
      </trkpt>
      <trkpt lat="50.651963" lon="6.393347">
        <ele>481.000000</ele>
        <time>2009-06-20T17:54:36Z</time>
      </trkpt>
      <trkpt lat="50.651819" lon="6.393177">
        <ele>481.000000</ele>
        <time>2009-06-20T17:54:43Z</time>
      </trkpt>
      <trkpt lat="50.651720" lon="6.392943">
        <ele>481.000000</ele>
        <time>2009-06-20T17:54:51Z</time>
      </trkpt>
      <trkpt lat="50.651572" lon="6.392653">
        <ele>482.000000</ele>
        <time>2009-06-20T17:55:00Z</time>
      </trkpt>
      <trkpt lat="50.651374" lon="6.392292">
        <ele>482.000000</ele>
        <time>2009-06-20T17:55:12Z</time>
      </trkpt>
      <trkpt lat="50.651186" lon="6.391938">
        <ele>476.000000</ele>
        <time>2009-06-20T17:55:24Z</time>
      </trkpt>
      <trkpt lat="50.650981" lon="6.391658">
        <ele>476.000000</ele>
        <time>2009-06-20T17:55:35Z</time>
      </trkpt>
      <trkpt lat="50.650851" lon="6.391473">
        <ele>476.000000</ele>
        <time>2009-06-20T17:55:42Z</time>
      </trkpt>
      <trkpt lat="50.650649" lon="6.391240">
        <ele>478.000000</ele>
        <time>2009-06-20T17:55:52Z</time>
      </trkpt>
      <trkpt lat="50.650474" lon="6.391048">
        <ele>478.000000</ele>
        <time>2009-06-20T17:56:00Z</time>
      </trkpt>
      <trkpt lat="50.650312" lon="6.390850">
        <ele>466.000000</ele>
        <time>2009-06-20T17:56:08Z</time>
      </trkpt>
      <trkpt lat="50.650137" lon="6.390744">
        <ele>466.000000</ele>
        <time>2009-06-20T17:56:16Z</time>
      </trkpt>
      <trkpt lat="50.649917" lon="6.390595">
        <ele>466.000000</ele>
        <time>2009-06-20T17:56:26Z</time>
      </trkpt>
      <trkpt lat="50.649769" lon="6.390524">
        <ele>466.000000</ele>
        <time>2009-06-20T17:56:32Z</time>
      </trkpt>
      <trkpt lat="50.649616" lon="6.390453">
        <ele>466.000000</ele>
        <time>2009-06-20T17:56:38Z</time>
      </trkpt>
      <trkpt lat="50.649454" lon="6.390418">
        <ele>458.000000</ele>
        <time>2009-06-20T17:56:45Z</time>
      </trkpt>
      <trkpt lat="50.649454" lon="6.390411">
        <ele>471.000000</ele>
        <time>2009-06-20T17:56:45Z</time>
      </trkpt>
      <trkpt lat="50.649212" lon="6.390361">
        <ele>471.000000</ele>
        <time>2009-06-20T17:56:55Z</time>
      </trkpt>
      <trkpt lat="50.648969" lon="6.390326">
        <ele>471.000000</ele>
        <time>2009-06-20T17:57:04Z</time>
      </trkpt>
      <trkpt lat="50.648767" lon="6.390234">
        <ele>471.000000</ele>
        <time>2009-06-20T17:57:13Z</time>
      </trkpt>
      <trkpt lat="50.648560" lon="6.390205">
        <ele>466.000000</ele>
        <time>2009-06-20T17:57:21Z</time>
      </trkpt>
      <trkpt lat="50.648349" lon="6.390156">
        <ele>466.000000</ele>
        <time>2009-06-20T17:57:30Z</time>
      </trkpt>
      <trkpt lat="50.648345" lon="6.390156">
        <ele>466.000000</ele>
        <time>2009-06-20T17:57:30Z</time>
      </trkpt>
      <trkpt lat="50.648174" lon="6.390113">
        <ele>466.000000</ele>
        <time>2009-06-20T17:57:37Z</time>
      </trkpt>
      <trkpt lat="50.647968" lon="6.390021">
        <ele>466.000000</ele>
        <time>2009-06-20T17:57:45Z</time>
      </trkpt>
      <trkpt lat="50.647770" lon="6.389986">
        <ele>462.000000</ele>
        <time>2009-06-20T17:57:53Z</time>
      </trkpt>
      <trkpt lat="50.647536" lon="6.389979">
        <ele>462.000000</ele>
        <time>2009-06-20T17:58:03Z</time>
      </trkpt>
      <trkpt lat="50.647332" lon="6.389975">
        <ele>462.000000</ele>
        <time>2009-06-20T17:58:11Z</time>
      </trkpt>
      <trkpt lat="50.647152" lon="6.389960">
        <ele>462.000000</ele>
        <time>2009-06-20T17:58:18Z</time>
      </trkpt>
      <trkpt lat="50.646827" lon="6.389872">
        <ele>457.000000</ele>
        <time>2009-06-20T17:58:31Z</time>
      </trkpt>
      <trkpt lat="50.646710" lon="6.389808">
        <ele>457.000000</ele>
        <time>2009-06-20T17:58:36Z</time>
      </trkpt>
      <trkpt lat="50.646589" lon="6.389638">
        <ele>457.000000</ele>
        <time>2009-06-20T17:58:43Z</time>
      </trkpt>
      <trkpt lat="50.646508" lon="6.389440">
        <ele>459.000000</ele>
        <time>2009-06-20T17:58:49Z</time>
      </trkpt>
      <trkpt lat="50.646400" lon="6.389248">
        <ele>459.000000</ele>
        <time>2009-06-20T17:58:55Z</time>
      </trkpt>
      <trkpt lat="50.646270" lon="6.388965">
        <ele>459.000000</ele>
        <time>2009-06-20T17:59:04Z</time>
      </trkpt>
      <trkpt lat="50.646108" lon="6.388590">
        <ele>449.000000</ele>
        <time>2009-06-20T17:59:16Z</time>
      </trkpt>
      <trkpt lat="50.645987" lon="6.388328">
        <ele>449.000000</ele>
        <time>2009-06-20T17:59:24Z</time>
      </trkpt>
      <trkpt lat="50.645848" lon="6.388044">
        <ele>449.000000</ele>
        <time>2009-06-20T17:59:33Z</time>
      </trkpt>
      <trkpt lat="50.645758" lon="6.387796">
        <ele>450.000000</ele>
        <time>2009-06-20T17:59:40Z</time>
      </trkpt>
      <trkpt lat="50.645655" lon="6.387556">
        <ele>450.000000</ele>
        <time>2009-06-20T17:59:47Z</time>
      </trkpt>
      <trkpt lat="50.645551" lon="6.387421">
        <ele>450.000000</ele>
        <time>2009-06-20T17:59:53Z</time>
      </trkpt>
      <trkpt lat="50.645403" lon="6.387244">
        <ele>438.000000</ele>
        <time>2009-06-20T18:00:00Z</time>
      </trkpt>
      <trkpt lat="50.645399" lon="6.387244">
        <ele>438.000000</ele>
        <time>2009-06-20T18:00:00Z</time>
      </trkpt>
      <trkpt lat="50.645250" lon="6.387095">
        <ele>438.000000</ele>
        <time>2009-06-20T18:00:08Z</time>
      </trkpt>
      <trkpt lat="50.645133" lon="6.386989">
        <ele>440.000000</ele>
        <time>2009-06-20T18:00:13Z</time>
      </trkpt>
      <trkpt lat="50.644981" lon="6.386876">
        <ele>440.000000</ele>
        <time>2009-06-20T18:00:20Z</time>
      </trkpt>
      <trkpt lat="50.644824" lon="6.386791">
        <ele>440.000000</ele>
        <time>2009-06-20T18:00:26Z</time>
      </trkpt>
      <trkpt lat="50.644653" lon="6.386677">
        <ele>440.000000</ele>
        <time>2009-06-20T18:00:34Z</time>
      </trkpt>
      <trkpt lat="50.644518" lon="6.386550">
        <ele>432.000000</ele>
        <time>2009-06-20T18:00:40Z</time>
      </trkpt>
      <trkpt lat="50.644370" lon="6.386429">
        <ele>432.000000</ele>
        <time>2009-06-20T18:00:47Z</time>
      </trkpt>
      <trkpt lat="50.644235" lon="6.386295">
        <ele>432.000000</ele>
        <time>2009-06-20T18:00:53Z</time>
      </trkpt>
      <trkpt lat="50.644082" lon="6.386160">
        <ele>439.000000</ele>
        <time>2009-06-20T18:01:00Z</time>
      </trkpt>
      <trkpt lat="50.643880" lon="6.385955">
        <ele>439.000000</ele>
        <time>2009-06-20T18:01:10Z</time>
      </trkpt>
      <trkpt lat="50.643808" lon="6.385905">
        <ele>439.000000</ele>
        <time>2009-06-20T18:01:13Z</time>
      </trkpt>
      <trkpt lat="50.643786" lon="6.385636">
        <ele>439.000000</ele>
        <time>2009-06-20T18:01:20Z</time>
      </trkpt>
      <trkpt lat="50.643755" lon="6.385416">
        <ele>446.000000</ele>
        <time>2009-06-20T18:01:25Z</time>
      </trkpt>
      <trkpt lat="50.643714" lon="6.385253">
        <ele>435.000000</ele>
        <time>2009-06-20T18:01:30Z</time>
      </trkpt>
      <trkpt lat="50.643710" lon="6.385105">
        <ele>435.000000</ele>
        <time>2009-06-20T18:01:34Z</time>
      </trkpt>
      <trkpt lat="50.643705" lon="6.384899">
        <ele>435.000000</ele>
        <time>2009-06-20T18:01:39Z</time>
      </trkpt>
      <trkpt lat="50.643705" lon="6.384559">
        <ele>438.000000</ele>
        <time>2009-06-20T18:01:48Z</time>
      </trkpt>
      <trkpt lat="50.643705" lon="6.384269">
        <ele>438.000000</ele>
        <time>2009-06-20T18:01:55Z</time>
      </trkpt>
      <trkpt lat="50.643705" lon="6.383865">
        <ele>438.000000</ele>
        <time>2009-06-20T18:02:05Z</time>
      </trkpt>
      <trkpt lat="50.643705" lon="6.383504">
        <ele>440.000000</ele>
        <time>2009-06-20T18:02:14Z</time>
      </trkpt>
      <trkpt lat="50.643719" lon="6.383334">
        <ele>440.000000</ele>
        <time>2009-06-20T18:02:19Z</time>
      </trkpt>
      <trkpt lat="50.643741" lon="6.383207">
        <ele>440.000000</ele>
        <time>2009-06-20T18:02:22Z</time>
      </trkpt>
      <trkpt lat="50.643786" lon="6.383122">
        <ele>451.000000</ele>
        <time>2009-06-20T18:02:25Z</time>
      </trkpt>
      <trkpt lat="50.643844" lon="6.383051">
        <ele>451.000000</ele>
        <time>2009-06-20T18:02:28Z</time>
      </trkpt>
      <trkpt lat="50.643880" lon="6.382874">
        <ele>444.000000</ele>
        <time>2009-06-20T18:02:32Z</time>
      </trkpt>
      <trkpt lat="50.643912" lon="6.382746">
        <ele>444.000000</ele>
        <time>2009-06-20T18:02:36Z</time>
      </trkpt>
      <trkpt lat="50.644011" lon="6.382718">
        <ele>444.000000</ele>
        <time>2009-06-20T18:02:40Z</time>
      </trkpt>
      <trkpt lat="50.644141" lon="6.382548">
        <ele>444.000000</ele>
        <time>2009-06-20T18:02:47Z</time>
      </trkpt>
      <trkpt lat="50.644267" lon="6.382420">
        <ele>444.000000</ele>
        <time>2009-06-20T18:02:53Z</time>
      </trkpt>
      <trkpt lat="50.644419" lon="6.382222">
        <ele>444.000000</ele>
        <time>2009-06-20T18:03:01Z</time>
      </trkpt>
      <trkpt lat="50.644532" lon="6.382094">
        <ele>444.000000</ele>
        <time>2009-06-20T18:03:06Z</time>
      </trkpt>
      <trkpt lat="50.644577" lon="6.381981">
        <ele>438.000000</ele>
        <time>2009-06-20T18:03:10Z</time>
      </trkpt>
      <trkpt lat="50.644666" lon="6.381839">
        <ele>448.000000</ele>
        <time>2009-06-20T18:03:15Z</time>
      </trkpt>
      <trkpt lat="50.644761" lon="6.381726">
        <ele>448.000000</ele>
        <time>2009-06-20T18:03:19Z</time>
      </trkpt>
      <trkpt lat="50.644909" lon="6.381584">
        <ele>448.000000</ele>
        <time>2009-06-20T18:03:26Z</time>
      </trkpt>
      <trkpt lat="50.645030" lon="6.381393">
        <ele>448.000000</ele>
        <time>2009-06-20T18:03:33Z</time>
      </trkpt>
      <trkpt lat="50.645178" lon="6.381152">
        <ele>440.000000</ele>
        <time>2009-06-20T18:03:42Z</time>
      </trkpt>
      <trkpt lat="50.645309" lon="6.380939">
        <ele>440.000000</ele>
        <time>2009-06-20T18:03:49Z</time>
      </trkpt>
      <trkpt lat="50.645435" lon="6.380791">
        <ele>453.000000</ele>
        <time>2009-06-20T18:03:56Z</time>
      </trkpt>
      <trkpt lat="50.645520" lon="6.380684">
        <ele>453.000000</ele>
        <time>2009-06-20T18:04:00Z</time>
      </trkpt>
      <trkpt lat="50.645673" lon="6.380528">
        <ele>453.000000</ele>
        <time>2009-06-20T18:04:07Z</time>
      </trkpt>
      <trkpt lat="50.645727" lon="6.380401">
        <ele>450.000000</ele>
        <time>2009-06-20T18:04:11Z</time>
      </trkpt>
      <trkpt lat="50.645794" lon="6.380302">
        <ele>450.000000</ele>
        <time>2009-06-20T18:04:15Z</time>
      </trkpt>
      <trkpt lat="50.645839" lon="6.380231">
        <ele>450.000000</ele>
        <time>2009-06-20T18:04:17Z</time>
      </trkpt>
      <trkpt lat="50.645951" lon="6.379969">
        <ele>450.000000</ele>
        <time>2009-06-20T18:04:25Z</time>
      </trkpt>
      <trkpt lat="50.646005" lon="6.379841">
        <ele>450.000000</ele>
        <time>2009-06-20T18:04:29Z</time>
      </trkpt>
      <trkpt lat="50.646077" lon="6.379664">
        <ele>450.000000</ele>
        <time>2009-06-20T18:04:35Z</time>
      </trkpt>
      <trkpt lat="50.646153" lon="6.379551">
        <ele>441.000000</ele>
        <time>2009-06-20T18:04:39Z</time>
      </trkpt>
      <trkpt lat="50.646301" lon="6.379409">
        <ele>447.000000</ele>
        <time>2009-06-20T18:04:46Z</time>
      </trkpt>
      <trkpt lat="50.646486" lon="6.379303">
        <ele>447.000000</ele>
        <time>2009-06-20T18:04:54Z</time>
      </trkpt>
      <trkpt lat="50.646670" lon="6.379260">
        <ele>447.000000</ele>
        <time>2009-06-20T18:05:01Z</time>
      </trkpt>
      <trkpt lat="50.646854" lon="6.379275">
        <ele>447.000000</ele>
        <time>2009-06-20T18:05:08Z</time>
      </trkpt>
      <trkpt lat="50.647016" lon="6.379324">
        <ele>447.000000</ele>
        <time>2009-06-20T18:05:15Z</time>
      </trkpt>
      <trkpt lat="50.647182" lon="6.379374">
        <ele>446.000000</ele>
        <time>2009-06-20T18:05:22Z</time>
      </trkpt>
      <trkpt lat="50.647348" lon="6.379466">
        <ele>446.000000</ele>
        <time>2009-06-20T18:05:29Z</time>
      </trkpt>
      <trkpt lat="50.647456" lon="6.379586">
        <ele>459.000000</ele>
        <time>2009-06-20T18:05:34Z</time>
      </trkpt>
      <trkpt lat="50.647564" lon="6.379756">
        <ele>459.000000</ele>
        <time>2009-06-20T18:05:40Z</time>
      </trkpt>
      <trkpt lat="50.647644" lon="6.379856">
        <ele>459.000000</ele>
        <time>2009-06-20T18:05:44Z</time>
      </trkpt>
      <trkpt lat="50.647743" lon="6.379983">
        <ele>459.000000</ele>
        <time>2009-06-20T18:05:49Z</time>
      </trkpt>
      <trkpt lat="50.647851" lon="6.380174">
        <ele>459.000000</ele>
        <time>2009-06-20T18:05:56Z</time>
      </trkpt>
      <trkpt lat="50.647932" lon="6.380337">
        <ele>455.000000</ele>
        <time>2009-06-20T18:06:01Z</time>
      </trkpt>
      <trkpt lat="50.648022" lon="6.380486">
        <ele>461.000000</ele>
        <time>2009-06-20T18:06:06Z</time>
      </trkpt>
      <trkpt lat="50.648107" lon="6.380698">
        <ele>461.000000</ele>
        <time>2009-06-20T18:06:13Z</time>
      </trkpt>
      <trkpt lat="50.648183" lon="6.380868">
        <ele>461.000000</ele>
        <time>2009-06-20T18:06:18Z</time>
      </trkpt>
      <trkpt lat="50.648246" lon="6.381017">
        <ele>461.000000</ele>
        <time>2009-06-20T18:06:23Z</time>
      </trkpt>
      <trkpt lat="50.648296" lon="6.381102">
        <ele>461.000000</ele>
        <time>2009-06-20T18:06:26Z</time>
      </trkpt>
      <trkpt lat="50.648368" lon="6.381244">
        <ele>461.000000</ele>
        <time>2009-06-20T18:06:30Z</time>
      </trkpt>
      <trkpt lat="50.648435" lon="6.381336">
        <ele>467.000000</ele>
        <time>2009-06-20T18:06:34Z</time>
      </trkpt>
      <trkpt lat="50.648493" lon="6.381428">
        <ele>467.000000</ele>
        <time>2009-06-20T18:06:37Z</time>
      </trkpt>
      <trkpt lat="50.648570" lon="6.381541">
        <ele>467.000000</ele>
        <time>2009-06-20T18:06:41Z</time>
      </trkpt>
      <trkpt lat="50.648642" lon="6.381619">
        <ele>467.000000</ele>
        <time>2009-06-20T18:06:45Z</time>
      </trkpt>
      <trkpt lat="50.648718" lon="6.381733">
        <ele>467.000000</ele>
        <time>2009-06-20T18:06:49Z</time>
      </trkpt>
      <trkpt lat="50.648794" lon="6.381846">
        <ele>466.000000</ele>
        <time>2009-06-20T18:06:53Z</time>
      </trkpt>
      <trkpt lat="50.648826" lon="6.381903">
        <ele>466.000000</ele>
        <time>2009-06-20T18:06:55Z</time>
      </trkpt>
      <trkpt lat="50.648902" lon="6.381874">
        <ele>466.000000</ele>
        <time>2009-06-20T18:06:58Z</time>
      </trkpt>
      <trkpt lat="50.648970" lon="6.381852">
        <ele>466.000000</ele>
        <time>2009-06-20T18:07:01Z</time>
      </trkpt>
      <trkpt lat="50.648988" lon="6.381852">
        <ele>466.000000</ele>
        <time>2009-06-20T18:07:02Z</time>
      </trkpt>
      <trkpt lat="50.649078" lon="6.381817">
        <ele>466.000000</ele>
        <time>2009-06-20T18:07:05Z</time>
      </trkpt>
      <trkpt lat="50.649078" lon="6.381824">
        <ele>466.000000</ele>
        <time>2009-06-20T18:07:06Z</time>
      </trkpt>
      <trkpt lat="50.649293" lon="6.381768">
        <ele>466.000000</ele>
        <time>2009-06-20T18:07:14Z</time>
      </trkpt>
      <trkpt lat="50.649293" lon="6.381760">
        <ele>466.000000</ele>
        <time>2009-06-20T18:07:14Z</time>
      </trkpt>
      <trkpt lat="50.649482" lon="6.381697">
        <ele>466.000000</ele>
        <time>2009-06-20T18:07:22Z</time>
      </trkpt>
      <trkpt lat="50.649680" lon="6.381612">
        <ele>465.000000</ele>
        <time>2009-06-20T18:07:30Z</time>
      </trkpt>
      <trkpt lat="50.649814" lon="6.381590">
        <ele>465.000000</ele>
        <time>2009-06-20T18:07:36Z</time>
      </trkpt>
      <trkpt lat="50.649945" lon="6.381576">
        <ele>465.000000</ele>
        <time>2009-06-20T18:07:41Z</time>
      </trkpt>
      <trkpt lat="50.650097" lon="6.381605">
        <ele>465.000000</ele>
        <time>2009-06-20T18:07:47Z</time>
      </trkpt>
      <trkpt lat="50.650228" lon="6.381640">
        <ele>465.000000</ele>
        <time>2009-06-20T18:07:52Z</time>
      </trkpt>
      <trkpt lat="50.650322" lon="6.381718">
        <ele>465.000000</ele>
        <time>2009-06-20T18:07:57Z</time>
      </trkpt>
      <trkpt lat="50.650425" lon="6.381824">
        <ele>451.000000</ele>
        <time>2009-06-20T18:08:02Z</time>
      </trkpt>
      <trkpt lat="50.650556" lon="6.381952">
        <ele>451.000000</ele>
        <time>2009-06-20T18:08:08Z</time>
      </trkpt>
      <trkpt lat="50.650663" lon="6.382044">
        <ele>451.000000</ele>
        <time>2009-06-20T18:08:13Z</time>
      </trkpt>
      <trkpt lat="50.650672" lon="6.382051">
        <ele>451.000000</ele>
        <time>2009-06-20T18:08:13Z</time>
      </trkpt>
      <trkpt lat="50.650776" lon="6.382164">
        <ele>463.000000</ele>
        <time>2009-06-20T18:08:18Z</time>
      </trkpt>
      <trkpt lat="50.650892" lon="6.382256">
        <ele>463.000000</ele>
        <time>2009-06-20T18:08:23Z</time>
      </trkpt>
      <trkpt lat="50.651050" lon="6.382412">
        <ele>463.000000</ele>
        <time>2009-06-20T18:08:31Z</time>
      </trkpt>
      <trkpt lat="50.651153" lon="6.382518">
        <ele>463.000000</ele>
        <time>2009-06-20T18:08:36Z</time>
      </trkpt>
      <trkpt lat="50.651288" lon="6.382639">
        <ele>457.000000</ele>
        <time>2009-06-20T18:08:42Z</time>
      </trkpt>
      <trkpt lat="50.651494" lon="6.382816">
        <ele>457.000000</ele>
        <time>2009-06-20T18:08:51Z</time>
      </trkpt>
      <trkpt lat="50.651642" lon="6.382958">
        <ele>466.000000</ele>
        <time>2009-06-20T18:08:58Z</time>
      </trkpt>
      <trkpt lat="50.651800" lon="6.383092">
        <ele>466.000000</ele>
        <time>2009-06-20T18:09:05Z</time>
      </trkpt>
      <trkpt lat="50.651934" lon="6.383191">
        <ele>466.000000</ele>
        <time>2009-06-20T18:09:11Z</time>
      </trkpt>
      <trkpt lat="50.652051" lon="6.383269">
        <ele>466.000000</ele>
        <time>2009-06-20T18:09:16Z</time>
      </trkpt>
      <trkpt lat="50.652146" lon="6.383347">
        <ele>465.000000</ele>
        <time>2009-06-20T18:09:21Z</time>
      </trkpt>
      <trkpt lat="50.652271" lon="6.383446">
        <ele>465.000000</ele>
        <time>2009-06-20T18:09:26Z</time>
      </trkpt>
      <trkpt lat="50.652348" lon="6.383432">
        <ele>465.000000</ele>
        <time>2009-06-20T18:09:29Z</time>
      </trkpt>
      <trkpt lat="50.652429" lon="6.383347">
        <ele>465.000000</ele>
        <time>2009-06-20T18:09:33Z</time>
      </trkpt>
      <trkpt lat="50.652433" lon="6.383340">
        <ele>465.000000</ele>
        <time>2009-06-20T18:09:34Z</time>
      </trkpt>
      <trkpt lat="50.652494" lon="6.383273">
        <ele>465.000000</ele>
        <time>2009-06-20T18:09:37Z</time>
      </trkpt>
      <trkpt lat="50.652489" lon="6.383088">
        <ele>465.000000</ele>
        <time>2009-06-20T18:09:41Z</time>
      </trkpt>
      <trkpt lat="50.652489" lon="6.383081">
        <ele>465.000000</ele>
        <time>2009-06-20T18:09:41Z</time>
      </trkpt>
      <trkpt lat="50.652476" lon="6.382869">
        <ele>464.000000</ele>
        <time>2009-06-20T18:09:47Z</time>
      </trkpt>
      <trkpt lat="50.652449" lon="6.382550">
        <ele>464.000000</ele>
        <time>2009-06-20T18:09:55Z</time>
      </trkpt>
      <trkpt lat="50.652436" lon="6.382302">
        <ele>464.000000</ele>
        <time>2009-06-20T18:10:01Z</time>
      </trkpt>
      <trkpt lat="50.652409" lon="6.382104">
        <ele>464.000000</ele>
        <time>2009-06-20T18:10:06Z</time>
      </trkpt>
      <trkpt lat="50.652400" lon="6.381941">
        <ele>464.000000</ele>
        <time>2009-06-20T18:10:11Z</time>
      </trkpt>
      <trkpt lat="50.652436" lon="6.381799">
        <ele>464.000000</ele>
        <time>2009-06-20T18:10:15Z</time>
      </trkpt>
      <trkpt lat="50.652489" lon="6.381572">
        <ele>464.000000</ele>
        <time>2009-06-20T18:10:21Z</time>
      </trkpt>
      <trkpt lat="50.652539" lon="6.381410">
        <ele>464.000000</ele>
        <time>2009-06-20T18:10:25Z</time>
      </trkpt>
      <trkpt lat="50.652629" lon="6.381275">
        <ele>464.000000</ele>
        <time>2009-06-20T18:10:30Z</time>
      </trkpt>
      <trkpt lat="50.652629" lon="6.381268">
        <ele>464.000000</ele>
        <time>2009-06-20T18:10:30Z</time>
      </trkpt>
      <trkpt lat="50.652705" lon="6.381190">
        <ele>459.000000</ele>
        <time>2009-06-20T18:10:34Z</time>
      </trkpt>
      <trkpt lat="50.652822" lon="6.381119">
        <ele>459.000000</ele>
        <time>2009-06-20T18:10:39Z</time>
      </trkpt>
      <trkpt lat="50.652952" lon="6.381091">
        <ele>470.000000</ele>
        <time>2009-06-20T18:10:44Z</time>
      </trkpt>
      <trkpt lat="50.653082" lon="6.381091">
        <ele>470.000000</ele>
        <time>2009-06-20T18:10:49Z</time>
      </trkpt>
      <trkpt lat="50.653199" lon="6.381183">
        <ele>470.000000</ele>
        <time>2009-06-20T18:10:55Z</time>
      </trkpt>
      <trkpt lat="50.653298" lon="6.381303">
        <ele>474.000000</ele>
        <time>2009-06-20T18:11:00Z</time>
      </trkpt>
      <trkpt lat="50.653298" lon="6.381310">
        <ele>474.000000</ele>
        <time>2009-06-20T18:11:00Z</time>
      </trkpt>
      <trkpt lat="50.653383" lon="6.381459">
        <ele>474.000000</ele>
        <time>2009-06-20T18:11:05Z</time>
      </trkpt>
      <trkpt lat="50.653496" lon="6.381672">
        <ele>474.000000</ele>
        <time>2009-06-20T18:11:12Z</time>
      </trkpt>
      <trkpt lat="50.653576" lon="6.381820">
        <ele>474.000000</ele>
        <time>2009-06-20T18:11:17Z</time>
      </trkpt>
      <trkpt lat="50.653527" lon="6.381601">
        <ele>474.000000</ele>
        <time>2009-06-20T18:11:23Z</time>
      </trkpt>
      <trkpt lat="50.653496" lon="6.381402">
        <ele>474.000000</ele>
        <time>2009-06-20T18:11:28Z</time>
      </trkpt>
      <trkpt lat="50.653473" lon="6.381126">
        <ele>470.000000</ele>
        <time>2009-06-20T18:11:35Z</time>
      </trkpt>
      <trkpt lat="50.653428" lon="6.380793">
        <ele>470.000000</ele>
        <time>2009-06-20T18:11:44Z</time>
      </trkpt>
      <trkpt lat="50.653410" lon="6.380453">
        <ele>470.000000</ele>
        <time>2009-06-20T18:11:52Z</time>
      </trkpt>
      <trkpt lat="50.653356" lon="6.380156">
        <ele>467.000000</ele>
        <time>2009-06-20T18:12:00Z</time>
      </trkpt>
      <trkpt lat="50.653271" lon="6.379893">
        <ele>467.000000</ele>
        <time>2009-06-20T18:12:08Z</time>
      </trkpt>
      <trkpt lat="50.653204" lon="6.379568">
        <ele>469.000000</ele>
        <time>2009-06-20T18:12:16Z</time>
      </trkpt>
      <trkpt lat="50.653087" lon="6.379313">
        <ele>469.000000</ele>
        <time>2009-06-20T18:12:24Z</time>
      </trkpt>
      <trkpt lat="50.652957" lon="6.379043">
        <ele>469.000000</ele>
        <time>2009-06-20T18:12:33Z</time>
      </trkpt>
      <trkpt lat="50.652862" lon="6.378859">
        <ele>458.000000</ele>
        <time>2009-06-20T18:12:39Z</time>
      </trkpt>
      <trkpt lat="50.652741" lon="6.378682">
        <ele>461.000000</ele>
        <time>2009-06-20T18:12:46Z</time>
      </trkpt>
      <trkpt lat="50.652606" lon="6.378321">
        <ele>461.000000</ele>
        <time>2009-06-20T18:12:56Z</time>
      </trkpt>
      <trkpt lat="50.652409" lon="6.377832">
        <ele>466.000000</ele>
        <time>2009-06-20T18:13:11Z</time>
      </trkpt>
      <trkpt lat="50.652274" lon="6.377478">
        <ele>466.000000</ele>
        <time>2009-06-20T18:13:21Z</time>
      </trkpt>
      <trkpt lat="50.652211" lon="6.377301">
        <ele>466.000000</ele>
        <time>2009-06-20T18:13:27Z</time>
      </trkpt>
      <trkpt lat="50.652121" lon="6.377060">
        <ele>471.000000</ele>
        <time>2009-06-20T18:13:34Z</time>
      </trkpt>
      <trkpt lat="50.652036" lon="6.376819">
        <ele>461.000000</ele>
        <time>2009-06-20T18:13:41Z</time>
      </trkpt>
      <trkpt lat="50.651959" lon="6.376550">
        <ele>461.000000</ele>
        <time>2009-06-20T18:13:48Z</time>
      </trkpt>
      <trkpt lat="50.651847" lon="6.376189">
        <ele>466.000000</ele>
        <time>2009-06-20T18:13:58Z</time>
      </trkpt>
      <trkpt lat="50.651762" lon="6.375898">
        <ele>466.000000</ele>
        <time>2009-06-20T18:14:07Z</time>
      </trkpt>
      <trkpt lat="50.651627" lon="6.375594">
        <ele>466.000000</ele>
        <time>2009-06-20T18:14:16Z</time>
      </trkpt>
      <trkpt lat="50.651519" lon="6.375325">
        <ele>471.000000</ele>
        <time>2009-06-20T18:14:24Z</time>
      </trkpt>
      <trkpt lat="50.651519" lon="6.375303">
        <ele>471.000000</ele>
        <time>2009-06-20T18:14:25Z</time>
      </trkpt>
      <trkpt lat="50.651389" lon="6.375027">
        <ele>471.000000</ele>
        <time>2009-06-20T18:14:33Z</time>
      </trkpt>
      <trkpt lat="50.651294" lon="6.374730">
        <ele>471.000000</ele>
        <time>2009-06-20T18:14:42Z</time>
      </trkpt>
      <trkpt lat="50.651232" lon="6.374609">
        <ele>460.000000</ele>
        <time>2009-06-20T18:14:46Z</time>
      </trkpt>
      <trkpt lat="50.651146" lon="6.374425">
        <ele>466.000000</ele>
        <time>2009-06-20T18:14:52Z</time>
      </trkpt>
      <trkpt lat="50.651079" lon="6.374191">
        <ele>466.000000</ele>
        <time>2009-06-20T18:14:58Z</time>
      </trkpt>
      <trkpt lat="50.651079" lon="6.374184">
        <ele>466.000000</ele>
        <time>2009-06-20T18:14:58Z</time>
      </trkpt>
      <trkpt lat="50.651034" lon="6.373865">
        <ele>466.000000</ele>
        <time>2009-06-20T18:15:07Z</time>
      </trkpt>
      <trkpt lat="50.650994" lon="6.373667">
        <ele>471.000000</ele>
        <time>2009-06-20T18:15:12Z</time>
      </trkpt>
      <trkpt lat="50.650962" lon="6.373362">
        <ele>471.000000</ele>
        <time>2009-06-20T18:15:20Z</time>
      </trkpt>
      <trkpt lat="50.650944" lon="6.373122">
        <ele>471.000000</ele>
        <time>2009-06-20T18:15:26Z</time>
      </trkpt>
      <trkpt lat="50.650940" lon="6.373122">
        <ele>471.000000</ele>
        <time>2009-06-20T18:15:26Z</time>
      </trkpt>
      <trkpt lat="50.650926" lon="6.372845">
        <ele>474.000000</ele>
        <time>2009-06-20T18:15:33Z</time>
      </trkpt>
      <trkpt lat="50.650926" lon="6.372838">
        <ele>474.000000</ele>
        <time>2009-06-20T18:15:33Z</time>
      </trkpt>
      <trkpt lat="50.650926" lon="6.372604">
        <ele>474.000000</ele>
        <time>2009-06-20T18:15:39Z</time>
      </trkpt>
      <trkpt lat="50.650917" lon="6.372378">
        <ele>474.000000</ele>
        <time>2009-06-20T18:15:45Z</time>
      </trkpt>
      <trkpt lat="50.650931" lon="6.372179">
        <ele>474.000000</ele>
        <time>2009-06-20T18:15:50Z</time>
      </trkpt>
      <trkpt lat="50.650908" lon="6.371988">
        <ele>477.000000</ele>
        <time>2009-06-20T18:15:55Z</time>
      </trkpt>
      <trkpt lat="50.650908" lon="6.371974">
        <ele>477.000000</ele>
        <time>2009-06-20T18:15:55Z</time>
      </trkpt>
      <trkpt lat="50.650895" lon="6.371747">
        <ele>477.000000</ele>
        <time>2009-06-20T18:16:01Z</time>
      </trkpt>
      <trkpt lat="50.650890" lon="6.371747">
        <ele>477.000000</ele>
        <time>2009-06-20T18:16:01Z</time>
      </trkpt>
      <trkpt lat="50.650877" lon="6.371492">
        <ele>477.000000</ele>
        <time>2009-06-20T18:16:08Z</time>
      </trkpt>
      <trkpt lat="50.650881" lon="6.371223">
        <ele>478.000000</ele>
        <time>2009-06-20T18:16:15Z</time>
      </trkpt>
      <trkpt lat="50.650886" lon="6.371003">
        <ele>478.000000</ele>
        <time>2009-06-20T18:16:20Z</time>
      </trkpt>
      <trkpt lat="50.650926" lon="6.370855">
        <ele>478.000000</ele>
        <time>2009-06-20T18:16:24Z</time>
      </trkpt>
      <trkpt lat="50.650926" lon="6.370727">
        <ele>478.000000</ele>
        <time>2009-06-20T18:16:27Z</time>
      </trkpt>
      <trkpt lat="50.650917" lon="6.370557">
        <ele>478.000000</ele>
        <time>2009-06-20T18:16:32Z</time>
      </trkpt>
      <trkpt lat="50.650917" lon="6.370529">
        <ele>478.000000</ele>
        <time>2009-06-20T18:16:32Z</time>
      </trkpt>
      <trkpt lat="50.650904" lon="6.370444">
        <ele>478.000000</ele>
        <time>2009-06-20T18:16:35Z</time>
      </trkpt>
      <trkpt lat="50.650890" lon="6.370330">
        <ele>478.000000</ele>
        <time>2009-06-20T18:16:38Z</time>
      </trkpt>
      <trkpt lat="50.650859" lon="6.370111">
        <ele>478.000000</ele>
        <time>2009-06-20T18:16:43Z</time>
      </trkpt>
      <trkpt lat="50.650823" lon="6.369976">
        <ele>478.000000</ele>
        <time>2009-06-20T18:16:47Z</time>
      </trkpt>
      <trkpt lat="50.650818" lon="6.369962">
        <ele>478.000000</ele>
        <time>2009-06-20T18:16:47Z</time>
      </trkpt>
      <trkpt lat="50.650800" lon="6.369721">
        <ele>478.000000</ele>
        <time>2009-06-20T18:16:54Z</time>
      </trkpt>
      <trkpt lat="50.650787" lon="6.369410">
        <ele>478.000000</ele>
        <time>2009-06-20T18:17:02Z</time>
      </trkpt>
      <trkpt lat="50.650787" lon="6.369077">
        <ele>478.000000</ele>
        <time>2009-06-20T18:17:10Z</time>
      </trkpt>
      <trkpt lat="50.650791" lon="6.369070">
        <ele>478.000000</ele>
        <time>2009-06-20T18:17:10Z</time>
      </trkpt>
      <trkpt lat="50.650764" lon="6.368758">
        <ele>478.000000</ele>
        <time>2009-06-20T18:17:18Z</time>
      </trkpt>
      <trkpt lat="50.650755" lon="6.368446">
        <ele>478.000000</ele>
        <time>2009-06-20T18:17:26Z</time>
      </trkpt>
      <trkpt lat="50.650746" lon="6.368198">
        <ele>478.000000</ele>
        <time>2009-06-20T18:17:32Z</time>
      </trkpt>
      <trkpt lat="50.650733" lon="6.367943">
        <ele>478.000000</ele>
        <time>2009-06-20T18:17:39Z</time>
      </trkpt>
      <trkpt lat="50.650724" lon="6.367752">
        <ele>474.000000</ele>
        <time>2009-06-20T18:17:44Z</time>
      </trkpt>
      <trkpt lat="50.650701" lon="6.367625">
        <ele>474.000000</ele>
        <time>2009-06-20T18:17:47Z</time>
      </trkpt>
      <trkpt lat="50.650657" lon="6.367377">
        <ele>474.000000</ele>
        <time>2009-06-20T18:17:54Z</time>
      </trkpt>
      <trkpt lat="50.650643" lon="6.367122">
        <ele>474.000000</ele>
        <time>2009-06-20T18:18:00Z</time>
      </trkpt>
      <trkpt lat="50.650648" lon="6.366945">
        <ele>471.000000</ele>
        <time>2009-06-20T18:18:05Z</time>
      </trkpt>
      <trkpt lat="50.650670" lon="6.366732">
        <ele>471.000000</ele>
        <time>2009-06-20T18:18:10Z</time>
      </trkpt>
      <trkpt lat="50.650670" lon="6.366725">
        <ele>471.000000</ele>
        <time>2009-06-20T18:18:10Z</time>
      </trkpt>
      <trkpt lat="50.650692" lon="6.366555">
        <ele>471.000000</ele>
        <time>2009-06-20T18:18:15Z</time>
      </trkpt>
      <trkpt lat="50.650706" lon="6.366413">
        <ele>471.000000</ele>
        <time>2009-06-20T18:18:18Z</time>
      </trkpt>
      <trkpt lat="50.650742" lon="6.366236">
        <ele>476.000000</ele>
        <time>2009-06-20T18:18:23Z</time>
      </trkpt>
      <trkpt lat="50.650724" lon="6.366130">
        <ele>476.000000</ele>
        <time>2009-06-20T18:18:26Z</time>
      </trkpt>
      <trkpt lat="50.650657" lon="6.366024">
        <ele>476.000000</ele>
        <time>2009-06-20T18:18:30Z</time>
      </trkpt>
      <trkpt lat="50.650603" lon="6.365946">
        <ele>476.000000</ele>
        <time>2009-06-20T18:18:33Z</time>
      </trkpt>
      <trkpt lat="50.650526" lon="6.365854">
        <ele>476.000000</ele>
        <time>2009-06-20T18:18:36Z</time>
      </trkpt>
      <trkpt lat="50.650454" lon="6.365733">
        <ele>476.000000</ele>
        <time>2009-06-20T18:18:41Z</time>
      </trkpt>
      <trkpt lat="50.650405" lon="6.365613">
        <ele>468.000000</ele>
        <time>2009-06-20T18:18:44Z</time>
      </trkpt>
      <trkpt lat="50.650405" lon="6.365528">
        <ele>468.000000</ele>
        <time>2009-06-20T18:18:46Z</time>
      </trkpt>
      <trkpt lat="50.650405" lon="6.365372">
        <ele>476.000000</ele>
        <time>2009-06-20T18:18:50Z</time>
      </trkpt>
      <trkpt lat="50.650414" lon="6.365202">
        <ele>476.000000</ele>
        <time>2009-06-20T18:18:55Z</time>
      </trkpt>
      <trkpt lat="50.650391" lon="6.365067">
        <ele>476.000000</ele>
        <time>2009-06-20T18:18:58Z</time>
      </trkpt>
      <trkpt lat="50.650365" lon="6.364911">
        <ele>476.000000</ele>
        <time>2009-06-20T18:19:02Z</time>
      </trkpt>
      <trkpt lat="50.650360" lon="6.364763">
        <ele>476.000000</ele>
        <time>2009-06-20T18:19:06Z</time>
      </trkpt>
      <trkpt lat="50.650360" lon="6.364756">
        <ele>476.000000</ele>
        <time>2009-06-20T18:19:06Z</time>
      </trkpt>
      <trkpt lat="50.650315" lon="6.364578">
        <ele>479.000000</ele>
        <time>2009-06-20T18:19:11Z</time>
      </trkpt>
      <trkpt lat="50.650293" lon="6.364366">
        <ele>479.000000</ele>
        <time>2009-06-20T18:19:17Z</time>
      </trkpt>
      <trkpt lat="50.650252" lon="6.364139">
        <ele>479.000000</ele>
        <time>2009-06-20T18:19:23Z</time>
      </trkpt>
      <trkpt lat="50.650234" lon="6.364005">
        <ele>479.000000</ele>
        <time>2009-06-20T18:19:26Z</time>
      </trkpt>
      <trkpt lat="50.650149" lon="6.364104">
        <ele>479.000000</ele>
        <time>2009-06-20T18:19:30Z</time>
      </trkpt>
      <trkpt lat="50.650014" lon="6.364196">
        <ele>479.000000</ele>
        <time>2009-06-20T18:19:36Z</time>
      </trkpt>
      <trkpt lat="50.649888" lon="6.364324">
        <ele>479.000000</ele>
        <time>2009-06-20T18:19:42Z</time>
      </trkpt>
      <trkpt lat="50.649704" lon="6.364501">
        <ele>479.000000</ele>
        <time>2009-06-20T18:19:51Z</time>
      </trkpt>
      <trkpt lat="50.649570" lon="6.364607">
        <ele>469.000000</ele>
        <time>2009-06-20T18:19:57Z</time>
      </trkpt>
      <trkpt lat="50.649556" lon="6.364614">
        <ele>469.000000</ele>
        <time>2009-06-20T18:19:57Z</time>
      </trkpt>
      <trkpt lat="50.649417" lon="6.364777">
        <ele>469.000000</ele>
        <time>2009-06-20T18:20:04Z</time>
      </trkpt>
      <trkpt lat="50.649278" lon="6.364883">
        <ele>469.000000</ele>
        <time>2009-06-20T18:20:11Z</time>
      </trkpt>
      <trkpt lat="50.649089" lon="6.365046">
        <ele>469.000000</ele>
        <time>2009-06-20T18:20:19Z</time>
      </trkpt>
      <trkpt lat="50.648950" lon="6.365110">
        <ele>469.000000</ele>
        <time>2009-06-20T18:20:25Z</time>
      </trkpt>
      <trkpt lat="50.648806" lon="6.365152">
        <ele>469.000000</ele>
        <time>2009-06-20T18:20:31Z</time>
      </trkpt>
      <trkpt lat="50.648590" lon="6.365195">
        <ele>458.000000</ele>
        <time>2009-06-20T18:20:40Z</time>
      </trkpt>
      <trkpt lat="50.648429" lon="6.365209">
        <ele>458.000000</ele>
        <time>2009-06-20T18:20:46Z</time>
      </trkpt>
      <trkpt lat="50.648253" lon="6.365209">
        <ele>458.000000</ele>
        <time>2009-06-20T18:20:53Z</time>
      </trkpt>
      <trkpt lat="50.648150" lon="6.365166">
        <ele>458.000000</ele>
        <time>2009-06-20T18:20:57Z</time>
      </trkpt>
      <trkpt lat="50.647998" lon="6.365138">
        <ele>458.000000</ele>
        <time>2009-06-20T18:21:03Z</time>
      </trkpt>
      <trkpt lat="50.647998" lon="6.365131">
        <ele>458.000000</ele>
        <time>2009-06-20T18:21:04Z</time>
      </trkpt>
      <trkpt lat="50.647890" lon="6.365060">
        <ele>457.000000</ele>
        <time>2009-06-20T18:21:08Z</time>
      </trkpt>
      <trkpt lat="50.647787" lon="6.364968">
        <ele>457.000000</ele>
        <time>2009-06-20T18:21:13Z</time>
      </trkpt>
      <trkpt lat="50.647697" lon="6.364918">
        <ele>457.000000</ele>
        <time>2009-06-20T18:21:17Z</time>
      </trkpt>
      <trkpt lat="50.647575" lon="6.364897">
        <ele>457.000000</ele>
        <time>2009-06-20T18:21:22Z</time>
      </trkpt>
      <trkpt lat="50.647423" lon="6.364720">
        <ele>457.000000</ele>
        <time>2009-06-20T18:21:29Z</time>
      </trkpt>
      <trkpt lat="50.647279" lon="6.364557">
        <ele>452.000000</ele>
        <time>2009-06-20T18:21:36Z</time>
      </trkpt>
      <trkpt lat="50.647275" lon="6.364557">
        <ele>452.000000</ele>
        <time>2009-06-20T18:21:37Z</time>
      </trkpt>
      <trkpt lat="50.647108" lon="6.364387">
        <ele>452.000000</ele>
        <time>2009-06-20T18:21:45Z</time>
      </trkpt>
      <trkpt lat="50.646996" lon="6.364309">
        <ele>451.000000</ele>
        <time>2009-06-20T18:21:49Z</time>
      </trkpt>
      <trkpt lat="50.646803" lon="6.364245">
        <ele>451.000000</ele>
        <time>2009-06-20T18:21:57Z</time>
      </trkpt>
      <trkpt lat="50.646790" lon="6.364238">
        <ele>451.000000</ele>
        <time>2009-06-20T18:21:58Z</time>
      </trkpt>
      <trkpt lat="50.646659" lon="6.364210">
        <ele>451.000000</ele>
        <time>2009-06-20T18:22:03Z</time>
      </trkpt>
      <trkpt lat="50.646462" lon="6.364238">
        <ele>451.000000</ele>
        <time>2009-06-20T18:22:11Z</time>
      </trkpt>
      <trkpt lat="50.646286" lon="6.364245">
        <ele>451.000000</ele>
        <time>2009-06-20T18:22:18Z</time>
      </trkpt>
      <trkpt lat="50.646093" lon="6.364295">
        <ele>441.000000</ele>
        <time>2009-06-20T18:22:26Z</time>
      </trkpt>
      <trkpt lat="50.645914" lon="6.364429">
        <ele>441.000000</ele>
        <time>2009-06-20T18:22:34Z</time>
      </trkpt>
      <trkpt lat="50.645887" lon="6.364429">
        <ele>441.000000</ele>
        <time>2009-06-20T18:22:35Z</time>
      </trkpt>
      <trkpt lat="50.645720" lon="6.364550">
        <ele>441.000000</ele>
        <time>2009-06-20T18:22:42Z</time>
      </trkpt>
      <trkpt lat="50.645545" lon="6.364734">
        <ele>448.000000</ele>
        <time>2009-06-20T18:22:51Z</time>
      </trkpt>
      <trkpt lat="50.645379" lon="6.364946">
        <ele>430.000000</ele>
        <time>2009-06-20T18:22:59Z</time>
      </trkpt>
      <trkpt lat="50.645195" lon="6.365152">
        <ele>430.000000</ele>
        <time>2009-06-20T18:23:08Z</time>
      </trkpt>
      <trkpt lat="50.644975" lon="6.365428">
        <ele>438.000000</ele>
        <time>2009-06-20T18:23:20Z</time>
      </trkpt>
      <trkpt lat="50.644818" lon="6.365591">
        <ele>438.000000</ele>
        <time>2009-06-20T18:23:27Z</time>
      </trkpt>
      <trkpt lat="50.644678" lon="6.365796">
        <ele>438.000000</ele>
        <time>2009-06-20T18:23:35Z</time>
      </trkpt>
      <trkpt lat="50.644571" lon="6.365974">
        <ele>422.000000</ele>
        <time>2009-06-20T18:23:41Z</time>
      </trkpt>
      <trkpt lat="50.644521" lon="6.366172">
        <ele>422.000000</ele>
        <time>2009-06-20T18:23:46Z</time>
      </trkpt>
      <trkpt lat="50.644512" lon="6.366335">
        <ele>428.000000</ele>
        <time>2009-06-20T18:23:51Z</time>
      </trkpt>
      <trkpt lat="50.644512" lon="6.366604">
        <ele>428.000000</ele>
        <time>2009-06-20T18:23:57Z</time>
      </trkpt>
      <trkpt lat="50.644485" lon="6.366880">
        <ele>428.000000</ele>
        <time>2009-06-20T18:24:05Z</time>
      </trkpt>
      <trkpt lat="50.644420" lon="6.367096">
        <ele>437.000000</ele>
        <time>2009-06-20T18:24:11Z</time>
      </trkpt>
      <trkpt lat="50.644349" lon="6.367188">
        <ele>437.000000</ele>
        <time>2009-06-20T18:24:14Z</time>
      </trkpt>
      <trkpt lat="50.644277" lon="6.367216">
        <ele>437.000000</ele>
        <time>2009-06-20T18:24:17Z</time>
      </trkpt>
      <trkpt lat="50.644151" lon="6.367273">
        <ele>437.000000</ele>
        <time>2009-06-20T18:24:22Z</time>
      </trkpt>
      <trkpt lat="50.644039" lon="6.367308">
        <ele>437.000000</ele>
        <time>2009-06-20T18:24:27Z</time>
      </trkpt>
      <trkpt lat="50.643985" lon="6.367237">
        <ele>437.000000</ele>
        <time>2009-06-20T18:24:30Z</time>
      </trkpt>
      <trkpt lat="50.643949" lon="6.367152">
        <ele>437.000000</ele>
        <time>2009-06-20T18:24:32Z</time>
      </trkpt>
      <trkpt lat="50.643881" lon="6.367039">
        <ele>428.000000</ele>
        <time>2009-06-20T18:24:36Z</time>
      </trkpt>
      <trkpt lat="50.643873" lon="6.367039">
        <ele>428.000000</ele>
        <time>2009-06-20T18:24:37Z</time>
      </trkpt>
      <trkpt lat="50.643864" lon="6.366862">
        <ele>428.000000</ele>
        <time>2009-06-20T18:24:41Z</time>
      </trkpt>
      <trkpt lat="50.643859" lon="6.366862">
        <ele>428.000000</ele>
        <time>2009-06-20T18:24:41Z</time>
      </trkpt>
      <trkpt lat="50.643828" lon="6.366593">
        <ele>428.000000</ele>
        <time>2009-06-20T18:24:48Z</time>
      </trkpt>
      <trkpt lat="50.643783" lon="6.366444">
        <ele>428.000000</ele>
        <time>2009-06-20T18:24:53Z</time>
      </trkpt>
      <trkpt lat="50.643742" lon="6.366309">
        <ele>428.000000</ele>
        <time>2009-06-20T18:24:56Z</time>
      </trkpt>
      <trkpt lat="50.643706" lon="6.366168">
        <ele>418.000000</ele>
        <time>2009-06-20T18:25:00Z</time>
      </trkpt>
      <trkpt lat="50.643616" lon="6.366005">
        <ele>418.000000</ele>
        <time>2009-06-20T18:25:06Z</time>
      </trkpt>
      <trkpt lat="50.643518" lon="6.365870">
        <ele>418.000000</ele>
        <time>2009-06-20T18:25:11Z</time>
      </trkpt>
      <trkpt lat="50.643369" lon="6.365707">
        <ele>418.000000</ele>
        <time>2009-06-20T18:25:18Z</time>
      </trkpt>
      <trkpt lat="50.643253" lon="6.365615">
        <ele>418.000000</ele>
        <time>2009-06-20T18:25:23Z</time>
      </trkpt>
      <trkpt lat="50.643113" lon="6.365495">
        <ele>418.000000</ele>
        <time>2009-06-20T18:25:30Z</time>
      </trkpt>
      <trkpt lat="50.642974" lon="6.365459">
        <ele>418.000000</ele>
        <time>2009-06-20T18:25:35Z</time>
      </trkpt>
      <trkpt lat="50.642835" lon="6.365396">
        <ele>398.000000</ele>
        <time>2009-06-20T18:25:41Z</time>
      </trkpt>
      <trkpt lat="50.642826" lon="6.365389">
        <ele>398.000000</ele>
        <time>2009-06-20T18:25:42Z</time>
      </trkpt>
      <trkpt lat="50.642682" lon="6.365353">
        <ele>398.000000</ele>
        <time>2009-06-20T18:25:47Z</time>
      </trkpt>
      <trkpt lat="50.642521" lon="6.365353">
        <ele>398.000000</ele>
        <time>2009-06-20T18:25:54Z</time>
      </trkpt>
      <trkpt lat="50.642368" lon="6.365374">
        <ele>398.000000</ele>
        <time>2009-06-20T18:26:00Z</time>
      </trkpt>
      <trkpt lat="50.642193" lon="6.365495">
        <ele>410.000000</ele>
        <time>2009-06-20T18:26:08Z</time>
      </trkpt>
      <trkpt lat="50.642188" lon="6.365495">
        <ele>410.000000</ele>
        <time>2009-06-20T18:26:08Z</time>
      </trkpt>
      <trkpt lat="50.642098" lon="6.365601">
        <ele>410.000000</ele>
        <time>2009-06-20T18:26:12Z</time>
      </trkpt>
      <trkpt lat="50.642013" lon="6.365686">
        <ele>394.000000</ele>
        <time>2009-06-20T18:26:16Z</time>
      </trkpt>
      <trkpt lat="50.641901" lon="6.365799">
        <ele>394.000000</ele>
        <time>2009-06-20T18:26:22Z</time>
      </trkpt>
      <trkpt lat="50.641775" lon="6.365941">
        <ele>394.000000</ele>
        <time>2009-06-20T18:26:28Z</time>
      </trkpt>
      <trkpt lat="50.641618" lon="6.366069">
        <ele>394.000000</ele>
        <time>2009-06-20T18:26:35Z</time>
      </trkpt>
      <trkpt lat="50.641487" lon="6.366161">
        <ele>394.000000</ele>
        <time>2009-06-20T18:26:41Z</time>
      </trkpt>
      <trkpt lat="50.641483" lon="6.366161">
        <ele>394.000000</ele>
        <time>2009-06-20T18:26:41Z</time>
      </trkpt>
      <trkpt lat="50.641362" lon="6.366246">
        <ele>394.000000</ele>
        <time>2009-06-20T18:26:46Z</time>
      </trkpt>
      <trkpt lat="50.641223" lon="6.366246">
        <ele>392.000000</ele>
        <time>2009-06-20T18:26:52Z</time>
      </trkpt>
      <trkpt lat="50.641218" lon="6.366246">
        <ele>392.000000</ele>
        <time>2009-06-20T18:26:52Z</time>
      </trkpt>
      <trkpt lat="50.641088" lon="6.366295">
        <ele>381.000000</ele>
        <time>2009-06-20T18:26:57Z</time>
      </trkpt>
      <trkpt lat="50.640984" lon="6.366380">
        <ele>381.000000</ele>
        <time>2009-06-20T18:27:02Z</time>
      </trkpt>
      <trkpt lat="50.640984" lon="6.366387">
        <ele>381.000000</ele>
        <time>2009-06-20T18:27:02Z</time>
      </trkpt>
      <trkpt lat="50.640823" lon="6.366550">
        <ele>381.000000</ele>
        <time>2009-06-20T18:27:10Z</time>
      </trkpt>
      <trkpt lat="50.640818" lon="6.366550">
        <ele>381.000000</ele>
        <time>2009-06-20T18:27:10Z</time>
      </trkpt>
      <trkpt lat="50.640679" lon="6.366698">
        <ele>381.000000</ele>
        <time>2009-06-20T18:27:17Z</time>
      </trkpt>
      <trkpt lat="50.640598" lon="6.366747">
        <ele>381.000000</ele>
        <time>2009-06-20T18:27:20Z</time>
      </trkpt>
      <trkpt lat="50.640477" lon="6.366825">
        <ele>381.000000</ele>
        <time>2009-06-20T18:27:25Z</time>
      </trkpt>
      <trkpt lat="50.640499" lon="6.366931">
        <ele>381.000000</ele>
        <time>2009-06-20T18:27:28Z</time>
      </trkpt>
      <trkpt lat="50.640472" lon="6.367172">
        <ele>382.000000</ele>
        <time>2009-06-20T18:27:34Z</time>
      </trkpt>
      <trkpt lat="50.640454" lon="6.367356">
        <ele>382.000000</ele>
        <time>2009-06-20T18:27:39Z</time>
      </trkpt>
      <trkpt lat="50.640459" lon="6.367533">
        <ele>382.000000</ele>
        <time>2009-06-20T18:27:44Z</time>
      </trkpt>
      <trkpt lat="50.640486" lon="6.367703">
        <ele>382.000000</ele>
        <time>2009-06-20T18:27:48Z</time>
      </trkpt>
      <trkpt lat="50.640459" lon="6.367909">
        <ele>382.000000</ele>
        <time>2009-06-20T18:27:54Z</time>
      </trkpt>
      <trkpt lat="50.640490" lon="6.368043">
        <ele>383.000000</ele>
        <time>2009-06-20T18:27:57Z</time>
      </trkpt>
      <trkpt lat="50.640531" lon="6.368256">
        <ele>383.000000</ele>
        <time>2009-06-20T18:28:03Z</time>
      </trkpt>
      <trkpt lat="50.640535" lon="6.368270">
        <ele>383.000000</ele>
        <time>2009-06-20T18:28:03Z</time>
      </trkpt>
      <trkpt lat="50.640612" lon="6.368546">
        <ele>383.000000</ele>
        <time>2009-06-20T18:28:11Z</time>
      </trkpt>
      <trkpt lat="50.640666" lon="6.368829">
        <ele>380.000000</ele>
        <time>2009-06-20T18:28:18Z</time>
      </trkpt>
      <trkpt lat="50.640719" lon="6.369155">
        <ele>380.000000</ele>
        <time>2009-06-20T18:28:27Z</time>
      </trkpt>
      <trkpt lat="50.640755" lon="6.369297">
        <ele>380.000000</ele>
        <time>2009-06-20T18:28:31Z</time>
      </trkpt>
      <trkpt lat="50.640760" lon="6.369587">
        <ele>376.000000</ele>
        <time>2009-06-20T18:28:38Z</time>
      </trkpt>
      <trkpt lat="50.640760" lon="6.369863">
        <ele>376.000000</ele>
        <time>2009-06-20T18:28:45Z</time>
      </trkpt>
      <trkpt lat="50.640760" lon="6.369870">
        <ele>376.000000</ele>
        <time>2009-06-20T18:28:45Z</time>
      </trkpt>
      <trkpt lat="50.640760" lon="6.370083">
        <ele>376.000000</ele>
        <time>2009-06-20T18:28:51Z</time>
      </trkpt>
      <trkpt lat="50.640737" lon="6.370331">
        <ele>376.000000</ele>
        <time>2009-06-20T18:28:57Z</time>
      </trkpt>
      <trkpt lat="50.640737" lon="6.370338">
        <ele>376.000000</ele>
        <time>2009-06-20T18:28:57Z</time>
      </trkpt>
      <trkpt lat="50.640742" lon="6.370487">
        <ele>371.000000</ele>
        <time>2009-06-20T18:29:01Z</time>
      </trkpt>
      <trkpt lat="50.640715" lon="6.370777">
        <ele>371.000000</ele>
        <time>2009-06-20T18:29:08Z</time>
      </trkpt>
      <trkpt lat="50.640719" lon="6.370968">
        <ele>371.000000</ele>
        <time>2009-06-20T18:29:13Z</time>
      </trkpt>
      <trkpt lat="50.640751" lon="6.371159">
        <ele>371.000000</ele>
        <time>2009-06-20T18:29:18Z</time>
      </trkpt>
      <trkpt lat="50.640778" lon="6.371471">
        <ele>366.000000</ele>
        <time>2009-06-20T18:29:26Z</time>
      </trkpt>
      <trkpt lat="50.640787" lon="6.371634">
        <ele>366.000000</ele>
        <time>2009-06-20T18:29:30Z</time>
      </trkpt>
      <trkpt lat="50.640787" lon="6.371641">
        <ele>366.000000</ele>
        <time>2009-06-20T18:29:31Z</time>
      </trkpt>
      <trkpt lat="50.640746" lon="6.371868">
        <ele>366.000000</ele>
        <time>2009-06-20T18:29:37Z</time>
      </trkpt>
      <trkpt lat="50.640737" lon="6.372109">
        <ele>367.000000</ele>
        <time>2009-06-20T18:29:43Z</time>
      </trkpt>
      <trkpt lat="50.640737" lon="6.372116">
        <ele>367.000000</ele>
        <time>2009-06-20T18:29:43Z</time>
      </trkpt>
      <trkpt lat="50.640742" lon="6.372342">
        <ele>367.000000</ele>
        <time>2009-06-20T18:29:49Z</time>
      </trkpt>
      <trkpt lat="50.640706" lon="6.372810">
        <ele>367.000000</ele>
        <time>2009-06-20T18:30:01Z</time>
      </trkpt>
      <trkpt lat="50.640648" lon="6.373334">
        <ele>369.000000</ele>
        <time>2009-06-20T18:30:14Z</time>
      </trkpt>
      <trkpt lat="50.640594" lon="6.373801">
        <ele>366.000000</ele>
        <time>2009-06-20T18:30:26Z</time>
      </trkpt>
      <trkpt lat="50.640571" lon="6.374077">
        <ele>366.000000</ele>
        <time>2009-06-20T18:30:33Z</time>
      </trkpt>
      <trkpt lat="50.640539" lon="6.374275">
        <ele>366.000000</ele>
        <time>2009-06-20T18:30:38Z</time>
      </trkpt>
      <trkpt lat="50.640522" lon="6.374502">
        <ele>366.000000</ele>
        <time>2009-06-20T18:30:44Z</time>
      </trkpt>
      <trkpt lat="50.640513" lon="6.374743">
        <ele>362.000000</ele>
        <time>2009-06-20T18:30:50Z</time>
      </trkpt>
      <trkpt lat="50.640495" lon="6.375012">
        <ele>362.000000</ele>
        <time>2009-06-20T18:30:57Z</time>
      </trkpt>
      <trkpt lat="50.640477" lon="6.375302">
        <ele>362.000000</ele>
        <time>2009-06-20T18:31:05Z</time>
      </trkpt>
      <trkpt lat="50.640472" lon="6.375557">
        <ele>366.000000</ele>
        <time>2009-06-20T18:31:11Z</time>
      </trkpt>
      <trkpt lat="50.640432" lon="6.375755">
        <ele>366.000000</ele>
        <time>2009-06-20T18:31:16Z</time>
      </trkpt>
      <trkpt lat="50.640382" lon="6.375911">
        <ele>349.000000</ele>
        <time>2009-06-20T18:31:21Z</time>
      </trkpt>
      <trkpt lat="50.640382" lon="6.375918">
        <ele>349.000000</ele>
        <time>2009-06-20T18:31:21Z</time>
      </trkpt>
      <trkpt lat="50.640292" lon="6.376024">
        <ele>349.000000</ele>
        <time>2009-06-20T18:31:26Z</time>
      </trkpt>
      <trkpt lat="50.640153" lon="6.376286">
        <ele>340.000000</ele>
        <time>2009-06-20T18:31:34Z</time>
      </trkpt>
      <trkpt lat="50.640108" lon="6.376407">
        <ele>340.000000</ele>
        <time>2009-06-20T18:31:38Z</time>
      </trkpt>
      <trkpt lat="50.640059" lon="6.376541">
        <ele>340.000000</ele>
        <time>2009-06-20T18:31:42Z</time>
      </trkpt>
      <trkpt lat="50.639938" lon="6.376874">
        <ele>340.000000</ele>
        <time>2009-06-20T18:31:51Z</time>
      </trkpt>
      <trkpt lat="50.639938" lon="6.377037">
        <ele>340.000000</ele>
        <time>2009-06-20T18:31:56Z</time>
      </trkpt>
      <trkpt lat="50.639951" lon="6.377221">
        <ele>337.000000</ele>
        <time>2009-06-20T18:32:00Z</time>
      </trkpt>
      <trkpt lat="50.639951" lon="6.377469">
        <ele>337.000000</ele>
        <time>2009-06-20T18:32:07Z</time>
      </trkpt>
      <trkpt lat="50.639965" lon="6.377696">
        <ele>337.000000</ele>
        <time>2009-06-20T18:32:12Z</time>
      </trkpt>
      <trkpt lat="50.639983" lon="6.377866">
        <ele>337.000000</ele>
        <time>2009-06-20T18:32:17Z</time>
      </trkpt>
      <trkpt lat="50.640014" lon="6.377958">
        <ele>333.000000</ele>
        <time>2009-06-20T18:32:19Z</time>
      </trkpt>
      <trkpt lat="50.640063" lon="6.378128">
        <ele>333.000000</ele>
        <time>2009-06-20T18:32:24Z</time>
      </trkpt>
      <trkpt lat="50.640095" lon="6.378248">
        <ele>333.000000</ele>
        <time>2009-06-20T18:32:27Z</time>
      </trkpt>
      <trkpt lat="50.640126" lon="6.378355">
        <ele>333.000000</ele>
        <time>2009-06-20T18:32:30Z</time>
      </trkpt>
      <trkpt lat="50.640158" lon="6.378517">
        <ele>333.000000</ele>
        <time>2009-06-20T18:32:35Z</time>
      </trkpt>
      <trkpt lat="50.640189" lon="6.378751">
        <ele>335.000000</ele>
        <time>2009-06-20T18:32:41Z</time>
      </trkpt>
      <trkpt lat="50.640216" lon="6.378879">
        <ele>335.000000</ele>
        <time>2009-06-20T18:32:44Z</time>
      </trkpt>
      <trkpt lat="50.640266" lon="6.378957">
        <ele>335.000000</ele>
        <time>2009-06-20T18:32:47Z</time>
      </trkpt>
      <trkpt lat="50.640292" lon="6.379134">
        <ele>335.000000</ele>
        <time>2009-06-20T18:32:52Z</time>
      </trkpt>
      <trkpt lat="50.640292" lon="6.379141">
        <ele>335.000000</ele>
        <time>2009-06-20T18:32:52Z</time>
      </trkpt>
      <trkpt lat="50.640310" lon="6.379304">
        <ele>335.000000</ele>
        <time>2009-06-20T18:32:56Z</time>
      </trkpt>
      <trkpt lat="50.640310" lon="6.379311">
        <ele>335.000000</ele>
        <time>2009-06-20T18:32:56Z</time>
      </trkpt>
      <trkpt lat="50.640310" lon="6.379509">
        <ele>335.000000</ele>
        <time>2009-06-20T18:33:01Z</time>
      </trkpt>
      <trkpt lat="50.640310" lon="6.379636">
        <ele>337.000000</ele>
        <time>2009-06-20T18:33:04Z</time>
      </trkpt>
      <trkpt lat="50.640319" lon="6.379799">
        <ele>337.000000</ele>
        <time>2009-06-20T18:33:09Z</time>
      </trkpt>
      <trkpt lat="50.640342" lon="6.379927">
        <ele>337.000000</ele>
        <time>2009-06-20T18:33:12Z</time>
      </trkpt>
      <trkpt lat="50.640382" lon="6.380040">
        <ele>337.000000</ele>
        <time>2009-06-20T18:33:15Z</time>
      </trkpt>
      <trkpt lat="50.640432" lon="6.380210">
        <ele>328.000000</ele>
        <time>2009-06-20T18:33:20Z</time>
      </trkpt>
      <trkpt lat="50.640463" lon="6.380253">
        <ele>328.000000</ele>
        <time>2009-06-20T18:33:22Z</time>
      </trkpt>
      <trkpt lat="50.640513" lon="6.380246">
        <ele>328.000000</ele>
        <time>2009-06-20T18:33:24Z</time>
      </trkpt>
      <trkpt lat="50.640593" lon="6.380175">
        <ele>328.000000</ele>
        <time>2009-06-20T18:33:27Z</time>
      </trkpt>
      <trkpt lat="50.640643" lon="6.380175">
        <ele>328.000000</ele>
        <time>2009-06-20T18:33:29Z</time>
      </trkpt>
      <trkpt lat="50.640688" lon="6.380224">
        <ele>328.000000</ele>
        <time>2009-06-20T18:33:32Z</time>
      </trkpt>
      <trkpt lat="50.640692" lon="6.380224">
        <ele>328.000000</ele>
        <time>2009-06-20T18:33:32Z</time>
      </trkpt>
      <trkpt lat="50.640773" lon="6.380253">
        <ele>328.000000</ele>
        <time>2009-06-20T18:33:35Z</time>
      </trkpt>
      <trkpt lat="50.640840" lon="6.380309">
        <ele>328.000000</ele>
        <time>2009-06-20T18:33:38Z</time>
      </trkpt>
      <trkpt lat="50.640930" lon="6.380359">
        <ele>328.000000</ele>
        <time>2009-06-20T18:33:42Z</time>
      </trkpt>
      <trkpt lat="50.640912" lon="6.380550">
        <ele>326.000000</ele>
        <time>2009-06-20T18:33:47Z</time>
      </trkpt>
      <trkpt lat="50.640894" lon="6.380678">
        <ele>326.000000</ele>
        <time>2009-06-20T18:33:50Z</time>
      </trkpt>
      <trkpt lat="50.640885" lon="6.380833">
        <ele>326.000000</ele>
        <time>2009-06-20T18:33:54Z</time>
      </trkpt>
      <trkpt lat="50.640912" lon="6.381039">
        <ele>326.000000</ele>
        <time>2009-06-20T18:33:59Z</time>
      </trkpt>
      <trkpt lat="50.640935" lon="6.381287">
        <ele>324.000000</ele>
        <time>2009-06-20T18:34:06Z</time>
      </trkpt>
      <trkpt lat="50.640953" lon="6.381520">
        <ele>324.000000</ele>
        <time>2009-06-20T18:34:12Z</time>
      </trkpt>
      <trkpt lat="50.640966" lon="6.381775">
        <ele>324.000000</ele>
        <time>2009-06-20T18:34:18Z</time>
      </trkpt>
      <trkpt lat="50.640953" lon="6.382002">
        <ele>324.000000</ele>
        <time>2009-06-20T18:34:24Z</time>
      </trkpt>
      <trkpt lat="50.640953" lon="6.382207">
        <ele>320.000000</ele>
        <time>2009-06-20T18:34:29Z</time>
      </trkpt>
      <trkpt lat="50.640953" lon="6.382370">
        <ele>320.000000</ele>
        <time>2009-06-20T18:34:33Z</time>
      </trkpt>
      <trkpt lat="50.640948" lon="6.382568">
        <ele>320.000000</ele>
        <time>2009-06-20T18:34:38Z</time>
      </trkpt>
      <trkpt lat="50.640941" lon="6.382777">
        <ele>320.000000</ele>
        <time>2009-06-20T18:34:44Z</time>
      </trkpt>
      <trkpt lat="50.640874" lon="6.382982">
        <ele>316.000000</ele>
        <time>2009-06-20T18:34:50Z</time>
      </trkpt>
      <trkpt lat="50.640784" lon="6.383294">
        <ele>316.000000</ele>
        <time>2009-06-20T18:34:58Z</time>
      </trkpt>
      <trkpt lat="50.640685" lon="6.383620">
        <ele>316.000000</ele>
        <time>2009-06-20T18:35:07Z</time>
      </trkpt>
      <trkpt lat="50.640672" lon="6.383917">
        <ele>327.000000</ele>
        <time>2009-06-20T18:35:15Z</time>
      </trkpt>
      <trkpt lat="50.640672" lon="6.383931">
        <ele>327.000000</ele>
        <time>2009-06-20T18:35:15Z</time>
      </trkpt>
      <trkpt lat="50.640591" lon="6.384186">
        <ele>327.000000</ele>
        <time>2009-06-20T18:35:23Z</time>
      </trkpt>
      <trkpt lat="50.640506" lon="6.384455">
        <ele>327.000000</ele>
        <time>2009-06-20T18:35:30Z</time>
      </trkpt>
      <trkpt lat="50.640506" lon="6.384462">
        <ele>327.000000</ele>
        <time>2009-06-20T18:35:30Z</time>
      </trkpt>
      <trkpt lat="50.640380" lon="6.384590">
        <ele>307.000000</ele>
        <time>2009-06-20T18:35:36Z</time>
      </trkpt>
      <trkpt lat="50.640223" lon="6.384831">
        <ele>307.000000</ele>
        <time>2009-06-20T18:35:45Z</time>
      </trkpt>
      <trkpt lat="50.640011" lon="6.385057">
        <ele>307.000000</ele>
        <time>2009-06-20T18:35:55Z</time>
      </trkpt>
      <trkpt lat="50.639872" lon="6.385192">
        <ele>307.000000</ele>
        <time>2009-06-20T18:36:02Z</time>
      </trkpt>
      <trkpt lat="50.639746" lon="6.385341">
        <ele>307.000000</ele>
        <time>2009-06-20T18:36:08Z</time>
      </trkpt>
      <trkpt lat="50.639567" lon="6.385433">
        <ele>304.000000</ele>
        <time>2009-06-20T18:36:16Z</time>
      </trkpt>
      <trkpt lat="50.639445" lon="6.385461">
        <ele>304.000000</ele>
        <time>2009-06-20T18:36:21Z</time>
      </trkpt>
      <trkpt lat="50.639270" lon="6.385532">
        <ele>304.000000</ele>
        <time>2009-06-20T18:36:28Z</time>
      </trkpt>
      <trkpt lat="50.639248" lon="6.385758">
        <ele>304.000000</ele>
        <time>2009-06-20T18:36:34Z</time>
      </trkpt>
      <trkpt lat="50.639212" lon="6.385971">
        <ele>304.000000</ele>
        <time>2009-06-20T18:36:39Z</time>
      </trkpt>
      <trkpt lat="50.639158" lon="6.386247">
        <ele>304.000000</ele>
        <time>2009-06-20T18:36:47Z</time>
      </trkpt>
      <trkpt lat="50.639100" lon="6.386516">
        <ele>306.000000</ele>
        <time>2009-06-20T18:36:54Z</time>
      </trkpt>
      <trkpt lat="50.639014" lon="6.386870">
        <ele>306.000000</ele>
        <time>2009-06-20T18:37:04Z</time>
      </trkpt>
      <trkpt lat="50.638924" lon="6.387161">
        <ele>324.000000</ele>
        <time>2009-06-20T18:37:12Z</time>
      </trkpt>
      <trkpt lat="50.638924" lon="6.387168">
        <ele>324.000000</ele>
        <time>2009-06-20T18:37:12Z</time>
      </trkpt>
      <trkpt lat="50.638871" lon="6.387345">
        <ele>324.000000</ele>
        <time>2009-06-20T18:37:17Z</time>
      </trkpt>
      <trkpt lat="50.638740" lon="6.387501">
        <ele>303.000000</ele>
        <time>2009-06-20T18:37:23Z</time>
      </trkpt>
      <trkpt lat="50.638624" lon="6.387628">
        <ele>303.000000</ele>
        <time>2009-06-20T18:37:29Z</time>
      </trkpt>
      <trkpt lat="50.638619" lon="6.387628">
        <ele>303.000000</ele>
        <time>2009-06-20T18:37:29Z</time>
      </trkpt>
      <trkpt lat="50.638498" lon="6.387713">
        <ele>303.000000</ele>
        <time>2009-06-20T18:37:35Z</time>
      </trkpt>
      <trkpt lat="50.638282" lon="6.387897">
        <ele>303.000000</ele>
        <time>2009-06-20T18:37:44Z</time>
      </trkpt>
      <trkpt lat="50.638053" lon="6.388166">
        <ele>310.000000</ele>
        <time>2009-06-20T18:37:56Z</time>
      </trkpt>
      <trkpt lat="50.637779" lon="6.388492">
        <ele>289.000000</ele>
        <time>2009-06-20T18:38:10Z</time>
      </trkpt>
      <trkpt lat="50.637617" lon="6.388797">
        <ele>300.000000</ele>
        <time>2009-06-20T18:38:20Z</time>
      </trkpt>
      <trkpt lat="50.637447" lon="6.389158">
        <ele>300.000000</ele>
        <time>2009-06-20T18:38:31Z</time>
      </trkpt>
      <trkpt lat="50.637292" lon="6.389487">
        <ele>300.000000</ele>
        <time>2009-06-20T18:38:42Z</time>
      </trkpt>
      <trkpt lat="50.637135" lon="6.389813">
        <ele>311.000000</ele>
        <time>2009-06-20T18:38:52Z</time>
      </trkpt>
      <trkpt lat="50.637135" lon="6.389805">
        <ele>311.000000</ele>
        <time>2009-06-20T18:38:52Z</time>
      </trkpt>
      <trkpt lat="50.636964" lon="6.390195">
        <ele>283.000000</ele>
        <time>2009-06-20T18:39:04Z</time>
      </trkpt>
      <trkpt lat="50.636798" lon="6.390535">
        <ele>303.000000</ele>
        <time>2009-06-20T18:39:15Z</time>
      </trkpt>
      <trkpt lat="50.636627" lon="6.390825">
        <ele>303.000000</ele>
        <time>2009-06-20T18:39:25Z</time>
      </trkpt>
      <trkpt lat="50.636524" lon="6.390896">
        <ele>303.000000</ele>
        <time>2009-06-20T18:39:30Z</time>
      </trkpt>
      <trkpt lat="50.636340" lon="6.391031">
        <ele>303.000000</ele>
        <time>2009-06-20T18:39:38Z</time>
      </trkpt>
      <trkpt lat="50.636196" lon="6.391172">
        <ele>292.000000</ele>
        <time>2009-06-20T18:39:45Z</time>
      </trkpt>
      <trkpt lat="50.636097" lon="6.391356">
        <ele>298.000000</ele>
        <time>2009-06-20T18:39:51Z</time>
      </trkpt>
      <trkpt lat="50.635971" lon="6.391562">
        <ele>298.000000</ele>
        <time>2009-06-20T18:39:58Z</time>
      </trkpt>
      <trkpt lat="50.635774" lon="6.391732">
        <ele>298.000000</ele>
        <time>2009-06-20T18:40:07Z</time>
      </trkpt>
      <trkpt lat="50.635603" lon="6.391746">
        <ele>298.000000</ele>
        <time>2009-06-20T18:40:14Z</time>
      </trkpt>
      <trkpt lat="50.635401" lon="6.391824">
        <ele>289.000000</ele>
        <time>2009-06-20T18:40:22Z</time>
      </trkpt>
      <trkpt lat="50.635396" lon="6.391824">
        <ele>289.000000</ele>
        <time>2009-06-20T18:40:22Z</time>
      </trkpt>
      <trkpt lat="50.635226" lon="6.391916">
        <ele>289.000000</ele>
        <time>2009-06-20T18:40:29Z</time>
      </trkpt>
      <trkpt lat="50.635028" lon="6.392022">
        <ele>289.000000</ele>
        <time>2009-06-20T18:40:38Z</time>
      </trkpt>
      <trkpt lat="50.634839" lon="6.392114">
        <ele>299.000000</ele>
        <time>2009-06-20T18:40:46Z</time>
      </trkpt>
      <trkpt lat="50.634839" lon="6.392121">
        <ele>299.000000</ele>
        <time>2009-06-20T18:40:46Z</time>
      </trkpt>
      <trkpt lat="50.634628" lon="6.392256">
        <ele>299.000000</ele>
        <time>2009-06-20T18:40:55Z</time>
      </trkpt>
      <trkpt lat="50.634494" lon="6.392348">
        <ele>288.000000</ele>
        <time>2009-06-20T18:41:01Z</time>
      </trkpt>
      <trkpt lat="50.634417" lon="6.392497">
        <ele>288.000000</ele>
        <time>2009-06-20T18:41:06Z</time>
      </trkpt>
      <trkpt lat="50.634341" lon="6.392695">
        <ele>288.000000</ele>
        <time>2009-06-20T18:41:12Z</time>
      </trkpt>
      <trkpt lat="50.634350" lon="6.392808">
        <ele>288.000000</ele>
        <time>2009-06-20T18:41:15Z</time>
      </trkpt>
      <trkpt lat="50.634354" lon="6.392971">
        <ele>289.000000</ele>
        <time>2009-06-20T18:41:19Z</time>
      </trkpt>
      <trkpt lat="50.634377" lon="6.393106">
        <ele>289.000000</ele>
        <time>2009-06-20T18:41:22Z</time>
      </trkpt>
      <trkpt lat="50.634471" lon="6.393261">
        <ele>289.000000</ele>
        <time>2009-06-20T18:41:28Z</time>
      </trkpt>
      <trkpt lat="50.634543" lon="6.393474">
        <ele>289.000000</ele>
        <time>2009-06-20T18:41:34Z</time>
      </trkpt>
      <trkpt lat="50.634651" lon="6.393814">
        <ele>308.000000</ele>
        <time>2009-06-20T18:41:43Z</time>
      </trkpt>
      <trkpt lat="50.634718" lon="6.394047">
        <ele>308.000000</ele>
        <time>2009-06-20T18:41:50Z</time>
      </trkpt>
      <trkpt lat="50.634714" lon="6.394331">
        <ele>308.000000</ele>
        <time>2009-06-20T18:41:57Z</time>
      </trkpt>
      <trkpt lat="50.634705" lon="6.394784">
        <ele>305.000000</ele>
        <time>2009-06-20T18:42:09Z</time>
      </trkpt>
      <trkpt lat="50.634714" lon="6.395188">
        <ele>305.000000</ele>
        <time>2009-06-20T18:42:19Z</time>
      </trkpt>
      <trkpt lat="50.634723" lon="6.395535">
        <ele>301.000000</ele>
        <time>2009-06-20T18:42:28Z</time>
      </trkpt>
      <trkpt lat="50.634709" lon="6.395832">
        <ele>301.000000</ele>
        <time>2009-06-20T18:42:35Z</time>
      </trkpt>
      <trkpt lat="50.634718" lon="6.396108">
        <ele>301.000000</ele>
        <time>2009-06-20T18:42:42Z</time>
      </trkpt>
      <trkpt lat="50.634745" lon="6.396250">
        <ele>301.000000</ele>
        <time>2009-06-20T18:42:46Z</time>
      </trkpt>
      <trkpt lat="50.634749" lon="6.396264">
        <ele>296.000000</ele>
        <time>2009-06-20T18:42:47Z</time>
      </trkpt>
      <trkpt lat="50.634785" lon="6.396462">
        <ele>296.000000</ele>
        <time>2009-06-20T18:42:52Z</time>
      </trkpt>
      <trkpt lat="50.634806" lon="6.396735">
        <ele>296.000000</ele>
        <time>2009-06-20T18:42:59Z</time>
      </trkpt>
      <trkpt lat="50.634806" lon="6.397032">
        <ele>296.000000</ele>
        <time>2009-06-20T18:43:06Z</time>
      </trkpt>
      <trkpt lat="50.634797" lon="6.397415">
        <ele>308.000000</ele>
        <time>2009-06-20T18:43:16Z</time>
      </trkpt>
      <trkpt lat="50.634792" lon="6.397415">
        <ele>308.000000</ele>
        <time>2009-06-20T18:43:16Z</time>
      </trkpt>
      <trkpt lat="50.634770" lon="6.397620">
        <ele>308.000000</ele>
        <time>2009-06-20T18:43:21Z</time>
      </trkpt>
      <trkpt lat="50.634752" lon="6.397840">
        <ele>308.000000</ele>
        <time>2009-06-20T18:43:27Z</time>
      </trkpt>
      <trkpt lat="50.634720" lon="6.398088">
        <ele>321.000000</ele>
        <time>2009-06-20T18:43:34Z</time>
      </trkpt>
      <trkpt lat="50.634639" lon="6.398208">
        <ele>321.000000</ele>
        <time>2009-06-20T18:43:38Z</time>
      </trkpt>
      <trkpt lat="50.634630" lon="6.398222">
        <ele>321.000000</ele>
        <time>2009-06-20T18:43:38Z</time>
      </trkpt>
      <trkpt lat="50.634523" lon="6.398406">
        <ele>289.000000</ele>
        <time>2009-06-20T18:43:45Z</time>
      </trkpt>
      <trkpt lat="50.634469" lon="6.398612">
        <ele>289.000000</ele>
        <time>2009-06-20T18:43:50Z</time>
      </trkpt>
      <trkpt lat="50.634433" lon="6.398888">
        <ele>304.000000</ele>
        <time>2009-06-20T18:43:58Z</time>
      </trkpt>
      <trkpt lat="50.634374" lon="6.398937">
        <ele>304.000000</ele>
        <time>2009-06-20T18:44:00Z</time>
      </trkpt>
      <trkpt lat="50.634374" lon="6.398944">
        <ele>304.000000</ele>
        <time>2009-06-20T18:44:00Z</time>
      </trkpt>
      <trkpt lat="50.634258" lon="6.399086">
        <ele>304.000000</ele>
        <time>2009-06-20T18:44:06Z</time>
      </trkpt>
      <trkpt lat="50.634235" lon="6.399086">
        <ele>304.000000</ele>
        <time>2009-06-20T18:44:07Z</time>
      </trkpt>
      <trkpt lat="50.634096" lon="6.399164">
        <ele>304.000000</ele>
        <time>2009-06-20T18:44:13Z</time>
      </trkpt>
      <trkpt lat="50.633984" lon="6.399426">
        <ele>304.000000</ele>
        <time>2009-06-20T18:44:21Z</time>
      </trkpt>
      <trkpt lat="50.633916" lon="6.399617">
        <ele>320.000000</ele>
        <time>2009-06-20T18:44:27Z</time>
      </trkpt>
      <trkpt lat="50.633822" lon="6.399773">
        <ele>320.000000</ele>
        <time>2009-06-20T18:44:32Z</time>
      </trkpt>
      <trkpt lat="50.633710" lon="6.399879">
        <ele>291.000000</ele>
        <time>2009-06-20T18:44:37Z</time>
      </trkpt>
      <trkpt lat="50.633584" lon="6.399993">
        <ele>291.000000</ele>
        <time>2009-06-20T18:44:43Z</time>
      </trkpt>
      <trkpt lat="50.633575" lon="6.400000">
        <ele>291.000000</ele>
        <time>2009-06-20T18:44:44Z</time>
      </trkpt>
      <trkpt lat="50.633525" lon="6.400120">
        <ele>291.000000</ele>
        <time>2009-06-20T18:44:47Z</time>
      </trkpt>
      <trkpt lat="50.633436" lon="6.400339">
        <ele>291.000000</ele>
        <time>2009-06-20T18:44:54Z</time>
      </trkpt>
      <trkpt lat="50.633427" lon="6.400347">
        <ele>291.000000</ele>
        <time>2009-06-20T18:44:54Z</time>
      </trkpt>
      <trkpt lat="50.633301" lon="6.400432">
        <ele>304.000000</ele>
        <time>2009-06-20T18:45:00Z</time>
      </trkpt>
      <trkpt lat="50.633126" lon="6.400509">
        <ele>304.000000</ele>
        <time>2009-06-20T18:45:07Z</time>
      </trkpt>
      <trkpt lat="50.632969" lon="6.400637">
        <ele>304.000000</ele>
        <time>2009-06-20T18:45:14Z</time>
      </trkpt>
      <trkpt lat="50.632829" lon="6.400828">
        <ele>287.000000</ele>
        <time>2009-06-20T18:45:22Z</time>
      </trkpt>
      <trkpt lat="50.632784" lon="6.400920">
        <ele>287.000000</ele>
        <time>2009-06-20T18:45:25Z</time>
      </trkpt>
      <trkpt lat="50.632721" lon="6.401161">
        <ele>287.000000</ele>
        <time>2009-06-20T18:45:31Z</time>
      </trkpt>
      <trkpt lat="50.632609" lon="6.401218">
        <ele>287.000000</ele>
        <time>2009-06-20T18:45:36Z</time>
      </trkpt>
      <trkpt lat="50.632515" lon="6.401324">
        <ele>294.000000</ele>
        <time>2009-06-20T18:45:41Z</time>
      </trkpt>
      <trkpt lat="50.632412" lon="6.401494">
        <ele>294.000000</ele>
        <time>2009-06-20T18:45:46Z</time>
      </trkpt>
      <trkpt lat="50.632308" lon="6.401720">
        <ele>294.000000</ele>
        <time>2009-06-20T18:45:54Z</time>
      </trkpt>
      <trkpt lat="50.632263" lon="6.401834">
        <ele>294.000000</ele>
        <time>2009-06-20T18:45:57Z</time>
      </trkpt>
      <trkpt lat="50.632263" lon="6.401848">
        <ele>294.000000</ele>
        <time>2009-06-20T18:45:57Z</time>
      </trkpt>
      <trkpt lat="50.632281" lon="6.401982">
        <ele>294.000000</ele>
        <time>2009-06-20T18:46:01Z</time>
      </trkpt>
      <trkpt lat="50.632326" lon="6.402167">
        <ele>296.000000</ele>
        <time>2009-06-20T18:46:06Z</time>
      </trkpt>
      <trkpt lat="50.632371" lon="6.402372">
        <ele>296.000000</ele>
        <time>2009-06-20T18:46:11Z</time>
      </trkpt>
      <trkpt lat="50.632376" lon="6.402372">
        <ele>296.000000</ele>
        <time>2009-06-20T18:46:12Z</time>
      </trkpt>
      <trkpt lat="50.632439" lon="6.402542">
        <ele>296.000000</ele>
        <time>2009-06-20T18:46:17Z</time>
      </trkpt>
      <trkpt lat="50.632488" lon="6.402790">
        <ele>296.000000</ele>
        <time>2009-06-20T18:46:23Z</time>
      </trkpt>
      <trkpt lat="50.632542" lon="6.403023">
        <ele>298.000000</ele>
        <time>2009-06-20T18:46:29Z</time>
      </trkpt>
      <trkpt lat="50.632591" lon="6.403271">
        <ele>298.000000</ele>
        <time>2009-06-20T18:46:36Z</time>
      </trkpt>
      <trkpt lat="50.632618" lon="6.403470">
        <ele>298.000000</ele>
        <time>2009-06-20T18:46:41Z</time>
      </trkpt>
      <trkpt lat="50.632668" lon="6.403746">
        <ele>298.000000</ele>
        <time>2009-06-20T18:46:48Z</time>
      </trkpt>
      <trkpt lat="50.632699" lon="6.403937">
        <ele>299.000000</ele>
        <time>2009-06-20T18:46:53Z</time>
      </trkpt>
      <trkpt lat="50.632753" lon="6.404263">
        <ele>299.000000</ele>
        <time>2009-06-20T18:47:02Z</time>
      </trkpt>
      <trkpt lat="50.632775" lon="6.404447">
        <ele>299.000000</ele>
        <time>2009-06-20T18:47:07Z</time>
      </trkpt>
      <trkpt lat="50.632811" lon="6.404645">
        <ele>301.000000</ele>
        <time>2009-06-20T18:47:12Z</time>
      </trkpt>
      <trkpt lat="50.632820" lon="6.404787">
        <ele>301.000000</ele>
        <time>2009-06-20T18:47:16Z</time>
      </trkpt>
      <trkpt lat="50.632789" lon="6.404957">
        <ele>301.000000</ele>
        <time>2009-06-20T18:47:20Z</time>
      </trkpt>
      <trkpt lat="50.632739" lon="6.405261">
        <ele>301.000000</ele>
        <time>2009-06-20T18:47:28Z</time>
      </trkpt>
      <trkpt lat="50.632708" lon="6.405551">
        <ele>302.000000</ele>
        <time>2009-06-20T18:47:36Z</time>
      </trkpt>
      <trkpt lat="50.632686" lon="6.405743">
        <ele>302.000000</ele>
        <time>2009-06-20T18:47:41Z</time>
      </trkpt>
      <trkpt lat="50.632672" lon="6.405828">
        <ele>302.000000</ele>
        <time>2009-06-20T18:47:43Z</time>
      </trkpt>
      <trkpt lat="50.632596" lon="6.406005">
        <ele>302.000000</ele>
        <time>2009-06-20T18:47:48Z</time>
      </trkpt>
      <trkpt lat="50.632605" lon="6.406111">
        <ele>302.000000</ele>
        <time>2009-06-20T18:47:51Z</time>
      </trkpt>
      <trkpt lat="50.632618" lon="6.406252">
        <ele>303.000000</ele>
        <time>2009-06-20T18:47:55Z</time>
      </trkpt>
      <trkpt lat="50.632659" lon="6.406458">
        <ele>303.000000</ele>
        <time>2009-06-20T18:48:00Z</time>
      </trkpt>
      <trkpt lat="50.632654" lon="6.406663">
        <ele>303.000000</ele>
        <time>2009-06-20T18:48:05Z</time>
      </trkpt>
      <trkpt lat="50.632632" lon="6.406784">
        <ele>303.000000</ele>
        <time>2009-06-20T18:48:08Z</time>
      </trkpt>
      <trkpt lat="50.632753" lon="6.406798">
        <ele>303.000000</ele>
        <time>2009-06-20T18:48:13Z</time>
      </trkpt>
      <trkpt lat="50.632843" lon="6.406833">
        <ele>303.000000</ele>
        <time>2009-06-20T18:48:17Z</time>
      </trkpt>
      <trkpt lat="50.632964" lon="6.406876">
        <ele>310.000000</ele>
        <time>2009-06-20T18:48:22Z</time>
      </trkpt>
      <trkpt lat="50.633085" lon="6.406939">
        <ele>310.000000</ele>
        <time>2009-06-20T18:48:27Z</time>
      </trkpt>
      <trkpt lat="50.633202" lon="6.406975">
        <ele>310.000000</ele>
        <time>2009-06-20T18:48:32Z</time>
      </trkpt>
      <trkpt lat="50.633332" lon="6.407024">
        <ele>310.000000</ele>
        <time>2009-06-20T18:48:37Z</time>
      </trkpt>
      <trkpt lat="50.633440" lon="6.407053">
        <ele>310.000000</ele>
        <time>2009-06-20T18:48:42Z</time>
      </trkpt>
      <trkpt lat="50.633570" lon="6.407053">
        <ele>310.000000</ele>
        <time>2009-06-20T18:48:47Z</time>
      </trkpt>
      <trkpt lat="50.633669" lon="6.407053">
        <ele>310.000000</ele>
        <time>2009-06-20T18:48:51Z</time>
      </trkpt>
      <trkpt lat="50.633764" lon="6.407060">
        <ele>311.000000</ele>
        <time>2009-06-20T18:48:55Z</time>
      </trkpt>
      <trkpt lat="50.633867" lon="6.407060">
        <ele>311.000000</ele>
        <time>2009-06-20T18:48:59Z</time>
      </trkpt>
      <trkpt lat="50.634038" lon="6.407095">
        <ele>296.000000</ele>
        <time>2009-06-20T18:49:06Z</time>
      </trkpt>
      <trkpt lat="50.634163" lon="6.407131">
        <ele>296.000000</ele>
        <time>2009-06-20T18:49:11Z</time>
      </trkpt>
      <trkpt lat="50.634289" lon="6.407124">
        <ele>296.000000</ele>
        <time>2009-06-20T18:49:16Z</time>
      </trkpt>
      <trkpt lat="50.634428" lon="6.407145">
        <ele>296.000000</ele>
        <time>2009-06-20T18:49:21Z</time>
      </trkpt>
      <trkpt lat="50.634568" lon="6.407152">
        <ele>296.000000</ele>
        <time>2009-06-20T18:49:27Z</time>
      </trkpt>
      <trkpt lat="50.634675" lon="6.407053">
        <ele>296.000000</ele>
        <time>2009-06-20T18:49:32Z</time>
      </trkpt>
      <trkpt lat="50.634752" lon="6.406975">
        <ele>296.000000</ele>
        <time>2009-06-20T18:49:36Z</time>
      </trkpt>
      <trkpt lat="50.634900" lon="6.406854">
        <ele>296.000000</ele>
        <time>2009-06-20T18:49:42Z</time>
      </trkpt>
      <trkpt lat="50.635062" lon="6.406727">
        <ele>296.000000</ele>
        <time>2009-06-20T18:49:49Z</time>
      </trkpt>
      <trkpt lat="50.635192" lon="6.406628">
        <ele>296.000000</ele>
        <time>2009-06-20T18:49:55Z</time>
      </trkpt>
      <trkpt lat="50.635282" lon="6.406507">
        <ele>296.000000</ele>
        <time>2009-06-20T18:50:00Z</time>
      </trkpt>
      <trkpt lat="50.635336" lon="6.406415">
        <ele>296.000000</ele>
        <time>2009-06-20T18:50:03Z</time>
      </trkpt>
      <trkpt lat="50.635399" lon="6.406259">
        <ele>296.000000</ele>
        <time>2009-06-20T18:50:08Z</time>
      </trkpt>
      <trkpt lat="50.635451" lon="6.406206">
        <ele>299.000000</ele>
        <time>2009-06-20T18:50:10Z</time>
      </trkpt>
      <trkpt lat="50.635554" lon="6.405951">
        <ele>299.000000</ele>
        <time>2009-06-20T18:50:18Z</time>
      </trkpt>
      <trkpt lat="50.635653" lon="6.405739">
        <ele>299.000000</ele>
        <time>2009-06-20T18:50:25Z</time>
      </trkpt>
      <trkpt lat="50.635779" lon="6.405548">
        <ele>299.000000</ele>
        <time>2009-06-20T18:50:32Z</time>
      </trkpt>
      <trkpt lat="50.635895" lon="6.405378">
        <ele>310.000000</ele>
        <time>2009-06-20T18:50:38Z</time>
      </trkpt>
      <trkpt lat="50.636021" lon="6.405186">
        <ele>310.000000</ele>
        <time>2009-06-20T18:50:45Z</time>
      </trkpt>
      <trkpt lat="50.636165" lon="6.404946">
        <ele>310.000000</ele>
        <time>2009-06-20T18:50:53Z</time>
      </trkpt>
      <trkpt lat="50.636277" lon="6.404754">
        <ele>292.000000</ele>
        <time>2009-06-20T18:51:00Z</time>
      </trkpt>
      <trkpt lat="50.636394" lon="6.404634">
        <ele>292.000000</ele>
        <time>2009-06-20T18:51:06Z</time>
      </trkpt>
      <trkpt lat="50.636520" lon="6.404499">
        <ele>307.000000</ele>
        <time>2009-06-20T18:51:12Z</time>
      </trkpt>
      <trkpt lat="50.636699" lon="6.404351">
        <ele>307.000000</ele>
        <time>2009-06-20T18:51:20Z</time>
      </trkpt>
      <trkpt lat="50.636830" lon="6.404301">
        <ele>307.000000</ele>
        <time>2009-06-20T18:51:25Z</time>
      </trkpt>
      <trkpt lat="50.636991" lon="6.404259">
        <ele>307.000000</ele>
        <time>2009-06-20T18:51:32Z</time>
      </trkpt>
      <trkpt lat="50.637144" lon="6.404202">
        <ele>296.000000</ele>
        <time>2009-06-20T18:51:38Z</time>
      </trkpt>
      <trkpt lat="50.637288" lon="6.404188">
        <ele>296.000000</ele>
        <time>2009-06-20T18:51:44Z</time>
      </trkpt>
      <trkpt lat="50.637445" lon="6.404209">
        <ele>296.000000</ele>
        <time>2009-06-20T18:51:50Z</time>
      </trkpt>
      <trkpt lat="50.637634" lon="6.404230">
        <ele>296.000000</ele>
        <time>2009-06-20T18:51:58Z</time>
      </trkpt>
      <trkpt lat="50.637706" lon="6.404195">
        <ele>296.000000</ele>
        <time>2009-06-20T18:52:01Z</time>
      </trkpt>
      <trkpt lat="50.637759" lon="6.404110">
        <ele>296.000000</ele>
        <time>2009-06-20T18:52:04Z</time>
      </trkpt>
      <trkpt lat="50.637876" lon="6.403933">
        <ele>296.000000</ele>
        <time>2009-06-20T18:52:10Z</time>
      </trkpt>
      <trkpt lat="50.637980" lon="6.403763">
        <ele>283.000000</ele>
        <time>2009-06-20T18:52:16Z</time>
      </trkpt>
      <trkpt lat="50.638092" lon="6.403635">
        <ele>298.000000</ele>
        <time>2009-06-20T18:52:22Z</time>
      </trkpt>
      <trkpt lat="50.638177" lon="6.403586">
        <ele>298.000000</ele>
        <time>2009-06-20T18:52:25Z</time>
      </trkpt>
      <trkpt lat="50.638316" lon="6.403508">
        <ele>298.000000</ele>
        <time>2009-06-20T18:52:31Z</time>
      </trkpt>
      <trkpt lat="50.638375" lon="6.403388">
        <ele>298.000000</ele>
        <time>2009-06-20T18:52:35Z</time>
      </trkpt>
      <trkpt lat="50.638375" lon="6.403380">
        <ele>298.000000</ele>
        <time>2009-06-20T18:52:35Z</time>
      </trkpt>
      <trkpt lat="50.638469" lon="6.403288">
        <ele>298.000000</ele>
        <time>2009-06-20T18:52:40Z</time>
      </trkpt>
      <trkpt lat="50.638595" lon="6.403147">
        <ele>298.000000</ele>
        <time>2009-06-20T18:52:46Z</time>
      </trkpt>
      <trkpt lat="50.638680" lon="6.403097">
        <ele>298.000000</ele>
        <time>2009-06-20T18:52:50Z</time>
      </trkpt>
      <trkpt lat="50.638743" lon="6.403033">
        <ele>298.000000</ele>
        <time>2009-06-20T18:52:53Z</time>
      </trkpt>
      <trkpt lat="50.638837" lon="6.402956">
        <ele>287.000000</ele>
        <time>2009-06-20T18:52:57Z</time>
      </trkpt>
      <trkpt lat="50.638968" lon="6.402849">
        <ele>304.000000</ele>
        <time>2009-06-20T18:53:03Z</time>
      </trkpt>
      <trkpt lat="50.639067" lon="6.402771">
        <ele>304.000000</ele>
        <time>2009-06-20T18:53:07Z</time>
      </trkpt>
      <trkpt lat="50.639211" lon="6.402778">
        <ele>304.000000</ele>
        <time>2009-06-20T18:53:13Z</time>
      </trkpt>
      <trkpt lat="50.639337" lon="6.402721">
        <ele>304.000000</ele>
        <time>2009-06-20T18:53:18Z</time>
      </trkpt>
      <trkpt lat="50.639408" lon="6.402608">
        <ele>304.000000</ele>
        <time>2009-06-20T18:53:22Z</time>
      </trkpt>
      <trkpt lat="50.639525" lon="6.402495">
        <ele>304.000000</ele>
        <time>2009-06-20T18:53:28Z</time>
      </trkpt>
      <trkpt lat="50.639633" lon="6.402353">
        <ele>293.000000</ele>
        <time>2009-06-20T18:53:33Z</time>
      </trkpt>
      <trkpt lat="50.639642" lon="6.402353">
        <ele>293.000000</ele>
        <time>2009-06-20T18:53:34Z</time>
      </trkpt>
      <trkpt lat="50.639763" lon="6.402226">
        <ele>293.000000</ele>
        <time>2009-06-20T18:53:40Z</time>
      </trkpt>
      <trkpt lat="50.639929" lon="6.402098">
        <ele>293.000000</ele>
        <time>2009-06-20T18:53:47Z</time>
      </trkpt>
      <trkpt lat="50.640033" lon="6.401985">
        <ele>299.000000</ele>
        <time>2009-06-20T18:53:52Z</time>
      </trkpt>
      <trkpt lat="50.640109" lon="6.401871">
        <ele>299.000000</ele>
        <time>2009-06-20T18:53:56Z</time>
      </trkpt>
      <trkpt lat="50.640150" lon="6.401758">
        <ele>299.000000</ele>
        <time>2009-06-20T18:53:59Z</time>
      </trkpt>
      <trkpt lat="50.640190" lon="6.401616">
        <ele>299.000000</ele>
        <time>2009-06-20T18:54:03Z</time>
      </trkpt>
      <trkpt lat="50.640199" lon="6.401489">
        <ele>299.000000</ele>
        <time>2009-06-20T18:54:07Z</time>
      </trkpt>
      <trkpt lat="50.640253" lon="6.401418">
        <ele>299.000000</ele>
        <time>2009-06-20T18:54:09Z</time>
      </trkpt>
      <trkpt lat="50.640311" lon="6.401397">
        <ele>299.000000</ele>
        <time>2009-06-20T18:54:12Z</time>
      </trkpt>
      <trkpt lat="50.640419" lon="6.401354">
        <ele>292.000000</ele>
        <time>2009-06-20T18:54:16Z</time>
      </trkpt>
      <trkpt lat="50.640549" lon="6.401326">
        <ele>292.000000</ele>
        <time>2009-06-20T18:54:22Z</time>
      </trkpt>
      <trkpt lat="50.640680" lon="6.401284">
        <ele>292.000000</ele>
        <time>2009-06-20T18:54:27Z</time>
      </trkpt>
      <trkpt lat="50.640810" lon="6.401248">
        <ele>308.000000</ele>
        <time>2009-06-20T18:54:32Z</time>
      </trkpt>
      <trkpt lat="50.640962" lon="6.401234">
        <ele>308.000000</ele>
        <time>2009-06-20T18:54:38Z</time>
      </trkpt>
      <trkpt lat="50.641115" lon="6.401227">
        <ele>308.000000</ele>
        <time>2009-06-20T18:54:44Z</time>
      </trkpt>
      <trkpt lat="50.641232" lon="6.401269">
        <ele>292.000000</ele>
        <time>2009-06-20T18:54:49Z</time>
      </trkpt>
      <trkpt lat="50.641281" lon="6.401298">
        <ele>297.000000</ele>
        <time>2009-06-20T18:54:51Z</time>
      </trkpt>
      <trkpt lat="50.641394" lon="6.401361">
        <ele>297.000000</ele>
        <time>2009-06-20T18:54:56Z</time>
      </trkpt>
      <trkpt lat="50.641546" lon="6.401489">
        <ele>297.000000</ele>
        <time>2009-06-20T18:55:03Z</time>
      </trkpt>
      <trkpt lat="50.641690" lon="6.401680">
        <ele>297.000000</ele>
        <time>2009-06-20T18:55:11Z</time>
      </trkpt>
      <trkpt lat="50.641865" lon="6.401893">
        <ele>297.000000</ele>
        <time>2009-06-20T18:55:19Z</time>
      </trkpt>
      <trkpt lat="50.641978" lon="6.402027">
        <ele>297.000000</ele>
        <time>2009-06-20T18:55:25Z</time>
      </trkpt>
      <trkpt lat="50.641978" lon="6.402034">
        <ele>297.000000</ele>
        <time>2009-06-20T18:55:25Z</time>
      </trkpt>
      <trkpt lat="50.642081" lon="6.402183">
        <ele>302.000000</ele>
        <time>2009-06-20T18:55:31Z</time>
      </trkpt>
      <trkpt lat="50.642171" lon="6.402268">
        <ele>312.000000</ele>
        <time>2009-06-20T18:55:35Z</time>
      </trkpt>
      <trkpt lat="50.642247" lon="6.402388">
        <ele>312.000000</ele>
        <time>2009-06-20T18:55:39Z</time>
      </trkpt>
      <trkpt lat="50.642247" lon="6.402396">
        <ele>312.000000</ele>
        <time>2009-06-20T18:55:40Z</time>
      </trkpt>
      <trkpt lat="50.642297" lon="6.402480">
        <ele>312.000000</ele>
        <time>2009-06-20T18:55:42Z</time>
      </trkpt>
      <trkpt lat="50.642301" lon="6.402495">
        <ele>312.000000</ele>
        <time>2009-06-20T18:55:43Z</time>
      </trkpt>
      <trkpt lat="50.642301" lon="6.402544">
        <ele>312.000000</ele>
        <time>2009-06-20T18:55:44Z</time>
      </trkpt>
      <trkpt lat="50.642314" lon="6.402608">
        <ele>312.000000</ele>
        <time>2009-06-20T18:55:46Z</time>
      </trkpt>
      <trkpt lat="50.642319" lon="6.402686">
        <ele>312.000000</ele>
        <time>2009-06-20T18:55:48Z</time>
      </trkpt>
      <trkpt lat="50.642292" lon="6.402757">
        <ele>312.000000</ele>
        <time>2009-06-20T18:55:50Z</time>
      </trkpt>
      <trkpt lat="50.642247" lon="6.402835">
        <ele>312.000000</ele>
        <time>2009-06-20T18:55:53Z</time>
      </trkpt>
      <trkpt lat="50.642184" lon="6.402849">
        <ele>312.000000</ele>
        <time>2009-06-20T18:55:55Z</time>
      </trkpt>
      <trkpt lat="50.642112" lon="6.402842">
        <ele>312.000000</ele>
        <time>2009-06-20T18:55:58Z</time>
      </trkpt>
      <trkpt lat="50.642023" lon="6.402842">
        <ele>302.000000</ele>
        <time>2009-06-20T18:56:02Z</time>
      </trkpt>
      <trkpt lat="50.641919" lon="6.402799">
        <ele>302.000000</ele>
        <time>2009-06-20T18:56:06Z</time>
      </trkpt>
      <trkpt lat="50.641802" lon="6.402693">
        <ele>302.000000</ele>
        <time>2009-06-20T18:56:11Z</time>
      </trkpt>
      <trkpt lat="50.641780" lon="6.402693">
        <ele>302.000000</ele>
        <time>2009-06-20T18:56:12Z</time>
      </trkpt>
      <trkpt lat="50.641668" lon="6.402608">
        <ele>302.000000</ele>
        <time>2009-06-20T18:56:17Z</time>
      </trkpt>
      <trkpt lat="50.641573" lon="6.402509">
        <ele>302.000000</ele>
        <time>2009-06-20T18:56:22Z</time>
      </trkpt>
      <trkpt lat="50.641461" lon="6.402403">
        <ele>302.000000</ele>
        <time>2009-06-20T18:56:27Z</time>
      </trkpt>
      <trkpt lat="50.641344" lon="6.402289">
        <ele>302.000000</ele>
        <time>2009-06-20T18:56:32Z</time>
      </trkpt>
      <trkpt lat="50.641174" lon="6.402233">
        <ele>297.000000</ele>
        <time>2009-06-20T18:56:39Z</time>
      </trkpt>
      <trkpt lat="50.641003" lon="6.402268">
        <ele>297.000000</ele>
        <time>2009-06-20T18:56:46Z</time>
      </trkpt>
      <trkpt lat="50.640850" lon="6.402367">
        <ele>297.000000</ele>
        <time>2009-06-20T18:56:53Z</time>
      </trkpt>
      <trkpt lat="50.640738" lon="6.402516">
        <ele>297.000000</ele>
        <time>2009-06-20T18:56:59Z</time>
      </trkpt>
      <trkpt lat="50.640599" lon="6.402750">
        <ele>297.000000</ele>
        <time>2009-06-20T18:57:07Z</time>
      </trkpt>
      <trkpt lat="50.640455" lon="6.403047">
        <ele>303.000000</ele>
        <time>2009-06-20T18:57:16Z</time>
      </trkpt>
      <trkpt lat="50.640352" lon="6.403239">
        <ele>287.000000</ele>
        <time>2009-06-20T18:57:23Z</time>
      </trkpt>
      <trkpt lat="50.640203" lon="6.403437">
        <ele>287.000000</ele>
        <time>2009-06-20T18:57:31Z</time>
      </trkpt>
      <trkpt lat="50.640069" lon="6.403635">
        <ele>287.000000</ele>
        <time>2009-06-20T18:57:38Z</time>
      </trkpt>
      <trkpt lat="50.639965" lon="6.403918">
        <ele>284.000000</ele>
        <time>2009-06-20T18:57:46Z</time>
      </trkpt>
      <trkpt lat="50.639849" lon="6.404117">
        <ele>284.000000</ele>
        <time>2009-06-20T18:57:53Z</time>
      </trkpt>
      <trkpt lat="50.639691" lon="6.404258">
        <ele>284.000000</ele>
        <time>2009-06-20T18:58:00Z</time>
      </trkpt>
      <trkpt lat="50.639566" lon="6.404343">
        <ele>284.000000</ele>
        <time>2009-06-20T18:58:06Z</time>
      </trkpt>
      <trkpt lat="50.639467" lon="6.404485">
        <ele>284.000000</ele>
        <time>2009-06-20T18:58:11Z</time>
      </trkpt>
      <trkpt lat="50.639444" lon="6.404591">
        <ele>280.000000</ele>
        <time>2009-06-20T18:58:14Z</time>
      </trkpt>
      <trkpt lat="50.639471" lon="6.404634">
        <ele>280.000000</ele>
        <time>2009-06-20T18:58:16Z</time>
      </trkpt>
      <trkpt lat="50.639597" lon="6.404655">
        <ele>280.000000</ele>
        <time>2009-06-20T18:58:21Z</time>
      </trkpt>
      <trkpt lat="50.639741" lon="6.404683">
        <ele>280.000000</ele>
        <time>2009-06-20T18:58:26Z</time>
      </trkpt>
      <trkpt lat="50.639898" lon="6.404655">
        <ele>280.000000</ele>
        <time>2009-06-20T18:58:33Z</time>
      </trkpt>
      <trkpt lat="50.640091" lon="6.404620">
        <ele>280.000000</ele>
        <time>2009-06-20T18:58:41Z</time>
      </trkpt>
      <trkpt lat="50.640253" lon="6.404620">
        <ele>280.000000</ele>
        <time>2009-06-20T18:58:47Z</time>
      </trkpt>
      <trkpt lat="50.640424" lon="6.404520">
        <ele>292.000000</ele>
        <time>2009-06-20T18:58:54Z</time>
      </trkpt>
      <trkpt lat="50.640581" lon="6.404358">
        <ele>292.000000</ele>
        <time>2009-06-20T18:59:02Z</time>
      </trkpt>
      <trkpt lat="50.640693" lon="6.404301">
        <ele>292.000000</ele>
        <time>2009-06-20T18:59:07Z</time>
      </trkpt>
      <trkpt lat="50.640810" lon="6.404329">
        <ele>292.000000</ele>
        <time>2009-06-20T18:59:11Z</time>
      </trkpt>
      <trkpt lat="50.640949" lon="6.404343">
        <ele>292.000000</ele>
        <time>2009-06-20T18:59:17Z</time>
      </trkpt>
      <trkpt lat="50.641147" lon="6.404372">
        <ele>292.000000</ele>
        <time>2009-06-20T18:59:25Z</time>
      </trkpt>
      <trkpt lat="50.641344" lon="6.404421">
        <ele>299.000000</ele>
        <time>2009-06-20T18:59:33Z</time>
      </trkpt>
      <trkpt lat="50.641497" lon="6.404485">
        <ele>299.000000</ele>
        <time>2009-06-20T18:59:39Z</time>
      </trkpt>
      <trkpt lat="50.641582" lon="6.404605">
        <ele>291.000000</ele>
        <time>2009-06-20T18:59:44Z</time>
      </trkpt>
      <trkpt lat="50.641681" lon="6.404768">
        <ele>291.000000</ele>
        <time>2009-06-20T18:59:49Z</time>
      </trkpt>
      <trkpt lat="50.641780" lon="6.404988">
        <ele>291.000000</ele>
        <time>2009-06-20T18:59:56Z</time>
      </trkpt>
      <trkpt lat="50.641888" lon="6.405158">
        <ele>291.000000</ele>
        <time>2009-06-20T19:00:02Z</time>
      </trkpt>
      <trkpt lat="50.641955" lon="6.405300">
        <ele>291.000000</ele>
        <time>2009-06-20T19:00:07Z</time>
      </trkpt>
      <trkpt lat="50.642049" lon="6.405498">
        <ele>286.000000</ele>
        <time>2009-06-20T19:00:13Z</time>
      </trkpt>
      <trkpt lat="50.642144" lon="6.405817">
        <ele>306.000000</ele>
        <time>2009-06-20T19:00:22Z</time>
      </trkpt>
      <trkpt lat="50.642207" lon="6.406057">
        <ele>306.000000</ele>
        <time>2009-06-20T19:00:29Z</time>
      </trkpt>
      <trkpt lat="50.642288" lon="6.406241">
        <ele>306.000000</ele>
        <time>2009-06-20T19:00:34Z</time>
      </trkpt>
      <trkpt lat="50.642346" lon="6.406426">
        <ele>299.000000</ele>
        <time>2009-06-20T19:00:40Z</time>
      </trkpt>
      <trkpt lat="50.642449" lon="6.406596">
        <ele>299.000000</ele>
        <time>2009-06-20T19:00:46Z</time>
      </trkpt>
      <trkpt lat="50.642530" lon="6.406723">
        <ele>299.000000</ele>
        <time>2009-06-20T19:00:50Z</time>
      </trkpt>
      <trkpt lat="50.642606" lon="6.406921">
        <ele>299.000000</ele>
        <time>2009-06-20T19:00:56Z</time>
      </trkpt>
      <trkpt lat="50.642692" lon="6.407091">
        <ele>290.000000</ele>
        <time>2009-06-20T19:01:02Z</time>
      </trkpt>
      <trkpt lat="50.642782" lon="6.407176">
        <ele>290.000000</ele>
        <time>2009-06-20T19:01:06Z</time>
      </trkpt>
      <trkpt lat="50.642885" lon="6.407304">
        <ele>290.000000</ele>
        <time>2009-06-20T19:01:11Z</time>
      </trkpt>
      <trkpt lat="50.642970" lon="6.407403">
        <ele>312.000000</ele>
        <time>2009-06-20T19:01:15Z</time>
      </trkpt>
      <trkpt lat="50.643087" lon="6.407531">
        <ele>312.000000</ele>
        <time>2009-06-20T19:01:21Z</time>
      </trkpt>
      <trkpt lat="50.643132" lon="6.407658">
        <ele>312.000000</ele>
        <time>2009-06-20T19:01:25Z</time>
      </trkpt>
      <trkpt lat="50.643132" lon="6.407778">
        <ele>312.000000</ele>
        <time>2009-06-20T19:01:28Z</time>
      </trkpt>
      <trkpt lat="50.643092" lon="6.407969">
        <ele>302.000000</ele>
        <time>2009-06-20T19:01:33Z</time>
      </trkpt>
      <trkpt lat="50.643034" lon="6.408189">
        <ele>302.000000</ele>
        <time>2009-06-20T19:01:39Z</time>
      </trkpt>
      <trkpt lat="50.643020" lon="6.408401">
        <ele>302.000000</ele>
        <time>2009-06-20T19:01:44Z</time>
      </trkpt>
      <trkpt lat="50.643011" lon="6.408585">
        <ele>302.000000</ele>
        <time>2009-06-20T19:01:49Z</time>
      </trkpt>
      <trkpt lat="50.643016" lon="6.408593">
        <ele>302.000000</ele>
        <time>2009-06-20T19:01:49Z</time>
      </trkpt>
      <trkpt lat="50.643038" lon="6.408614">
        <ele>302.000000</ele>
        <time>2009-06-20T19:01:50Z</time>
      </trkpt>
      <trkpt lat="50.643020" lon="6.408876">
        <ele>295.000000</ele>
        <time>2009-06-20T19:01:57Z</time>
      </trkpt>
      <trkpt lat="50.643029" lon="6.409096">
        <ele>295.000000</ele>
        <time>2009-06-20T19:02:03Z</time>
      </trkpt>
      <trkpt lat="50.642998" lon="6.409308">
        <ele>295.000000</ele>
        <time>2009-06-20T19:02:08Z</time>
      </trkpt>
      <trkpt lat="50.642989" lon="6.409457">
        <ele>295.000000</ele>
        <time>2009-06-20T19:02:12Z</time>
      </trkpt>
      <trkpt lat="50.643016" lon="6.409520">
        <ele>295.000000</ele>
        <time>2009-06-20T19:02:14Z</time>
      </trkpt>
      <trkpt lat="50.643105" lon="6.409535">
        <ele>295.000000</ele>
        <time>2009-06-20T19:02:17Z</time>
      </trkpt>
      <trkpt lat="50.643245" lon="6.409528">
        <ele>295.000000</ele>
        <time>2009-06-20T19:02:23Z</time>
      </trkpt>
      <trkpt lat="50.643384" lon="6.409520">
        <ele>295.000000</ele>
        <time>2009-06-20T19:02:29Z</time>
      </trkpt>
      <trkpt lat="50.643505" lon="6.409528">
        <ele>295.000000</ele>
        <time>2009-06-20T19:02:33Z</time>
      </trkpt>
      <trkpt lat="50.643635" lon="6.409528">
        <ele>295.000000</ele>
        <time>2009-06-20T19:02:39Z</time>
      </trkpt>
      <trkpt lat="50.643905" lon="6.409528">
        <ele>311.000000</ele>
        <time>2009-06-20T19:02:49Z</time>
      </trkpt>
      <trkpt lat="50.644107" lon="6.409577">
        <ele>311.000000</ele>
        <time>2009-06-20T19:02:58Z</time>
      </trkpt>
      <trkpt lat="50.644112" lon="6.409577">
        <ele>311.000000</ele>
        <time>2009-06-20T19:02:58Z</time>
      </trkpt>
      <trkpt lat="50.644255" lon="6.409613">
        <ele>290.000000</ele>
        <time>2009-06-20T19:03:04Z</time>
      </trkpt>
      <trkpt lat="50.644368" lon="6.409690">
        <ele>290.000000</ele>
        <time>2009-06-20T19:03:09Z</time>
      </trkpt>
      <trkpt lat="50.644498" lon="6.409768">
        <ele>290.000000</ele>
        <time>2009-06-20T19:03:14Z</time>
      </trkpt>
      <trkpt lat="50.644637" lon="6.409860">
        <ele>302.000000</ele>
        <time>2009-06-20T19:03:20Z</time>
      </trkpt>
      <trkpt lat="50.644749" lon="6.409910">
        <ele>302.000000</ele>
        <time>2009-06-20T19:03:25Z</time>
      </trkpt>
      <trkpt lat="50.644853" lon="6.409974">
        <ele>302.000000</ele>
        <time>2009-06-20T19:03:29Z</time>
      </trkpt>
      <trkpt lat="50.644952" lon="6.410038">
        <ele>302.000000</ele>
        <time>2009-06-20T19:03:34Z</time>
      </trkpt>
      <trkpt lat="50.645023" lon="6.410045">
        <ele>302.000000</ele>
        <time>2009-06-20T19:03:36Z</time>
      </trkpt>
      <trkpt lat="50.645122" lon="6.410080">
        <ele>302.000000</ele>
        <time>2009-06-20T19:03:40Z</time>
      </trkpt>
      <trkpt lat="50.645230" lon="6.410158">
        <ele>302.000000</ele>
        <time>2009-06-20T19:03:45Z</time>
      </trkpt>
      <trkpt lat="50.645347" lon="6.410208">
        <ele>302.000000</ele>
        <time>2009-06-20T19:03:50Z</time>
      </trkpt>
      <trkpt lat="50.645464" lon="6.410285">
        <ele>316.000000</ele>
        <time>2009-06-20T19:03:55Z</time>
      </trkpt>
      <trkpt lat="50.645576" lon="6.410385">
        <ele>316.000000</ele>
        <time>2009-06-20T19:04:00Z</time>
      </trkpt>
      <trkpt lat="50.645720" lon="6.410540">
        <ele>307.000000</ele>
        <time>2009-06-20T19:04:07Z</time>
      </trkpt>
      <trkpt lat="50.645881" lon="6.410654">
        <ele>307.000000</ele>
        <time>2009-06-20T19:04:14Z</time>
      </trkpt>
      <trkpt lat="50.645985" lon="6.410767">
        <ele>307.000000</ele>
        <time>2009-06-20T19:04:19Z</time>
      </trkpt>
      <trkpt lat="50.646061" lon="6.410873">
        <ele>307.000000</ele>
        <time>2009-06-20T19:04:23Z</time>
      </trkpt>
      <trkpt lat="50.646137" lon="6.410965">
        <ele>307.000000</ele>
        <time>2009-06-20T19:04:27Z</time>
      </trkpt>
      <trkpt lat="50.646214" lon="6.411072">
        <ele>307.000000</ele>
        <time>2009-06-20T19:04:31Z</time>
      </trkpt>
      <trkpt lat="50.646312" lon="6.411206">
        <ele>306.000000</ele>
        <time>2009-06-20T19:04:37Z</time>
      </trkpt>
      <trkpt lat="50.646384" lon="6.411220">
        <ele>306.000000</ele>
        <time>2009-06-20T19:04:39Z</time>
      </trkpt>
      <trkpt lat="50.646434" lon="6.411150">
        <ele>306.000000</ele>
        <time>2009-06-20T19:04:42Z</time>
      </trkpt>
      <trkpt lat="50.646488" lon="6.411050">
        <ele>306.000000</ele>
        <time>2009-06-20T19:04:46Z</time>
      </trkpt>
      <trkpt lat="50.646528" lon="6.410930">
        <ele>306.000000</ele>
        <time>2009-06-20T19:04:49Z</time>
      </trkpt>
      <trkpt lat="50.646577" lon="6.410810">
        <ele>306.000000</ele>
        <time>2009-06-20T19:04:53Z</time>
      </trkpt>
      <trkpt lat="50.646648" lon="6.410664">
        <ele>306.000000</ele>
        <time>2009-06-20T19:04:57Z</time>
      </trkpt>
      <trkpt lat="50.646764" lon="6.410338">
        <ele>315.000000</ele>
        <time>2009-06-20T19:05:07Z</time>
      </trkpt>
      <trkpt lat="50.646877" lon="6.410027">
        <ele>315.000000</ele>
        <time>2009-06-20T19:05:16Z</time>
      </trkpt>
      <trkpt lat="50.647007" lon="6.409736">
        <ele>315.000000</ele>
        <time>2009-06-20T19:05:25Z</time>
      </trkpt>
      <trkpt lat="50.647151" lon="6.409368">
        <ele>313.000000</ele>
        <time>2009-06-20T19:05:36Z</time>
      </trkpt>
      <trkpt lat="50.647317" lon="6.408978">
        <ele>313.000000</ele>
        <time>2009-06-20T19:05:48Z</time>
      </trkpt>
      <trkpt lat="50.647425" lon="6.408730">
        <ele>317.000000</ele>
        <time>2009-06-20T19:05:55Z</time>
      </trkpt>
      <trkpt lat="50.647474" lon="6.408518">
        <ele>317.000000</ele>
        <time>2009-06-20T19:06:01Z</time>
      </trkpt>
      <trkpt lat="50.647555" lon="6.408284">
        <ele>317.000000</ele>
        <time>2009-06-20T19:06:08Z</time>
      </trkpt>
      <trkpt lat="50.647663" lon="6.408043">
        <ele>317.000000</ele>
        <time>2009-06-20T19:06:15Z</time>
      </trkpt>
      <trkpt lat="50.647784" lon="6.407760">
        <ele>339.000000</ele>
        <time>2009-06-20T19:06:24Z</time>
      </trkpt>
      <trkpt lat="50.647919" lon="6.407476">
        <ele>325.000000</ele>
        <time>2009-06-20T19:06:33Z</time>
      </trkpt>
      <trkpt lat="50.648062" lon="6.407221">
        <ele>325.000000</ele>
        <time>2009-06-20T19:06:42Z</time>
      </trkpt>
      <trkpt lat="50.648215" lon="6.406881">
        <ele>327.000000</ele>
        <time>2009-06-20T19:06:52Z</time>
      </trkpt>
      <trkpt lat="50.648368" lon="6.406570">
        <ele>327.000000</ele>
        <time>2009-06-20T19:07:02Z</time>
      </trkpt>
      <trkpt lat="50.648530" lon="6.406308">
        <ele>327.000000</ele>
        <time>2009-06-20T19:07:12Z</time>
      </trkpt>
      <trkpt lat="50.648700" lon="6.406010">
        <ele>353.000000</ele>
        <time>2009-06-20T19:07:22Z</time>
      </trkpt>
      <trkpt lat="50.648808" lon="6.405805">
        <ele>342.000000</ele>
        <time>2009-06-20T19:07:29Z</time>
      </trkpt>
      <trkpt lat="50.648979" lon="6.405578">
        <ele>342.000000</ele>
        <time>2009-06-20T19:07:37Z</time>
      </trkpt>
      <trkpt lat="50.649100" lon="6.405450">
        <ele>342.000000</ele>
        <time>2009-06-20T19:07:43Z</time>
      </trkpt>
      <trkpt lat="50.649257" lon="6.405288">
        <ele>358.000000</ele>
        <time>2009-06-20T19:07:51Z</time>
      </trkpt>
      <trkpt lat="50.649253" lon="6.405288">
        <ele>358.000000</ele>
        <time>2009-06-20T19:07:51Z</time>
      </trkpt>
      <trkpt lat="50.649428" lon="6.405068">
        <ele>358.000000</ele>
        <time>2009-06-20T19:08:00Z</time>
      </trkpt>
      <trkpt lat="50.649538" lon="6.404958">
        <ele>358.000000</ele>
        <time>2009-06-20T19:08:05Z</time>
      </trkpt>
      <trkpt lat="50.649592" lon="6.404972">
        <ele>349.000000</ele>
        <time>2009-06-20T19:08:07Z</time>
      </trkpt>
      <trkpt lat="50.649687" lon="6.404972">
        <ele>349.000000</ele>
        <time>2009-06-20T19:08:11Z</time>
      </trkpt>
      <trkpt lat="50.649794" lon="6.405007">
        <ele>349.000000</ele>
        <time>2009-06-20T19:08:15Z</time>
      </trkpt>
      <trkpt lat="50.649794" lon="6.405014">
        <ele>349.000000</ele>
        <time>2009-06-20T19:08:16Z</time>
      </trkpt>
      <trkpt lat="50.649929" lon="6.405050">
        <ele>349.000000</ele>
        <time>2009-06-20T19:08:21Z</time>
      </trkpt>
      <trkpt lat="50.650055" lon="6.405128">
        <ele>349.000000</ele>
        <time>2009-06-20T19:08:27Z</time>
      </trkpt>
      <trkpt lat="50.650014" lon="6.405220">
        <ele>349.000000</ele>
        <time>2009-06-20T19:08:29Z</time>
      </trkpt>
      <trkpt lat="50.649952" lon="6.405326">
        <ele>349.000000</ele>
        <time>2009-06-20T19:08:33Z</time>
      </trkpt>
      <trkpt lat="50.649871" lon="6.405440">
        <ele>349.000000</ele>
        <time>2009-06-20T19:08:37Z</time>
      </trkpt>
      <trkpt lat="50.649745" lon="6.405539">
        <ele>349.000000</ele>
        <time>2009-06-20T19:08:43Z</time>
      </trkpt>
      <trkpt lat="50.649637" lon="6.405581">
        <ele>349.000000</ele>
        <time>2009-06-20T19:08:48Z</time>
      </trkpt>
      <trkpt lat="50.649507" lon="6.405694">
        <ele>342.000000</ele>
        <time>2009-06-20T19:08:53Z</time>
      </trkpt>
      <trkpt lat="50.649440" lon="6.405836">
        <ele>342.000000</ele>
        <time>2009-06-20T19:08:58Z</time>
      </trkpt>
      <trkpt lat="50.649440" lon="6.405843">
        <ele>342.000000</ele>
        <time>2009-06-20T19:08:58Z</time>
      </trkpt>
      <trkpt lat="50.649386" lon="6.406070">
        <ele>342.000000</ele>
        <time>2009-06-20T19:09:04Z</time>
      </trkpt>
      <trkpt lat="50.649336" lon="6.406297">
        <ele>325.000000</ele>
        <time>2009-06-20T19:09:10Z</time>
      </trkpt>
      <trkpt lat="50.649300" lon="6.406502">
        <ele>325.000000</ele>
        <time>2009-06-20T19:09:16Z</time>
      </trkpt>
      <trkpt lat="50.649296" lon="6.406686">
        <ele>325.000000</ele>
        <time>2009-06-20T19:09:20Z</time>
      </trkpt>
      <trkpt lat="50.649305" lon="6.406863">
        <ele>325.000000</ele>
        <time>2009-06-20T19:09:25Z</time>
      </trkpt>
      <trkpt lat="50.649377" lon="6.407012">
        <ele>325.000000</ele>
        <time>2009-06-20T19:09:30Z</time>
      </trkpt>
      <trkpt lat="50.649386" lon="6.407019">
        <ele>325.000000</ele>
        <time>2009-06-20T19:09:30Z</time>
      </trkpt>
      <trkpt lat="50.649556" lon="6.407225">
        <ele>335.000000</ele>
        <time>2009-06-20T19:09:39Z</time>
      </trkpt>
      <trkpt lat="50.649740" lon="6.407395">
        <ele>351.000000</ele>
        <time>2009-06-20T19:09:47Z</time>
      </trkpt>
      <trkpt lat="50.649889" lon="6.407508">
        <ele>351.000000</ele>
        <time>2009-06-20T19:09:54Z</time>
      </trkpt>
      <trkpt lat="50.650014" lon="6.407657">
        <ele>351.000000</ele>
        <time>2009-06-20T19:10:00Z</time>
      </trkpt>
      <trkpt lat="50.650127" lon="6.407777">
        <ele>351.000000</ele>
        <time>2009-06-20T19:10:06Z</time>
      </trkpt>
      <trkpt lat="50.650275" lon="6.407848">
        <ele>351.000000</ele>
        <time>2009-06-20T19:10:12Z</time>
      </trkpt>
      <trkpt lat="50.650417" lon="6.407887">
        <ele>366.000000</ele>
        <time>2009-06-20T19:10:18Z</time>
      </trkpt>
      <trkpt lat="50.650579" lon="6.407929">
        <ele>361.000000</ele>
        <time>2009-06-20T19:10:24Z</time>
      </trkpt>
      <trkpt lat="50.650767" lon="6.407965">
        <ele>361.000000</ele>
        <time>2009-06-20T19:10:32Z</time>
      </trkpt>
      <trkpt lat="50.650951" lon="6.408050">
        <ele>361.000000</ele>
        <time>2009-06-20T19:10:39Z</time>
      </trkpt>
      <trkpt lat="50.651180" lon="6.408163">
        <ele>361.000000</ele>
        <time>2009-06-20T19:10:49Z</time>
      </trkpt>
      <trkpt lat="50.651315" lon="6.408220">
        <ele>373.000000</ele>
        <time>2009-06-20T19:10:55Z</time>
      </trkpt>
      <trkpt lat="50.651436" lon="6.408312">
        <ele>373.000000</ele>
        <time>2009-06-20T19:11:00Z</time>
      </trkpt>
      <trkpt lat="50.651589" lon="6.408397">
        <ele>373.000000</ele>
        <time>2009-06-20T19:11:06Z</time>
      </trkpt>
      <trkpt lat="50.651710" lon="6.408439">
        <ele>373.000000</ele>
        <time>2009-06-20T19:11:11Z</time>
      </trkpt>
      <trkpt lat="50.651787" lon="6.408581">
        <ele>373.000000</ele>
        <time>2009-06-20T19:11:16Z</time>
      </trkpt>
      <trkpt lat="50.651834" lon="6.408698">
        <ele>373.000000</ele>
        <time>2009-06-20T19:11:20Z</time>
      </trkpt>
      <trkpt lat="50.651888" lon="6.408889">
        <ele>384.000000</ele>
        <time>2009-06-20T19:11:25Z</time>
      </trkpt>
      <trkpt lat="50.651991" lon="6.409045">
        <ele>384.000000</ele>
        <time>2009-06-20T19:11:31Z</time>
      </trkpt>
      <trkpt lat="50.652131" lon="6.409208">
        <ele>389.000000</ele>
        <time>2009-06-20T19:11:38Z</time>
      </trkpt>
      <trkpt lat="50.652279" lon="6.409363">
        <ele>389.000000</ele>
        <time>2009-06-20T19:11:45Z</time>
      </trkpt>
      <trkpt lat="50.652450" lon="6.409541">
        <ele>389.000000</ele>
        <time>2009-06-20T19:11:53Z</time>
      </trkpt>
      <trkpt lat="50.652463" lon="6.409541">
        <ele>389.000000</ele>
        <time>2009-06-20T19:11:53Z</time>
      </trkpt>
      <trkpt lat="50.652584" lon="6.409689">
        <ele>384.000000</ele>
        <time>2009-06-20T19:12:00Z</time>
      </trkpt>
      <trkpt lat="50.652733" lon="6.409838">
        <ele>384.000000</ele>
        <time>2009-06-20T19:12:07Z</time>
      </trkpt>
      <trkpt lat="50.652854" lon="6.409973">
        <ele>384.000000</ele>
        <time>2009-06-20T19:12:13Z</time>
      </trkpt>
      <trkpt lat="50.652998" lon="6.410107">
        <ele>398.000000</ele>
        <time>2009-06-20T19:12:19Z</time>
      </trkpt>
      <trkpt lat="50.653141" lon="6.410235">
        <ele>398.000000</ele>
        <time>2009-06-20T19:12:26Z</time>
      </trkpt>
      <trkpt lat="50.653236" lon="6.410341">
        <ele>398.000000</ele>
        <time>2009-06-20T19:12:31Z</time>
      </trkpt>
      <trkpt lat="50.653303" lon="6.410462">
        <ele>403.000000</ele>
        <time>2009-06-20T19:12:35Z</time>
      </trkpt>
      <trkpt lat="50.653343" lon="6.410575">
        <ele>403.000000</ele>
        <time>2009-06-20T19:12:38Z</time>
      </trkpt>
      <trkpt lat="50.653402" lon="6.410610">
        <ele>403.000000</ele>
        <time>2009-06-20T19:12:40Z</time>
      </trkpt>
      <trkpt lat="50.653492" lon="6.410639">
        <ele>403.000000</ele>
        <time>2009-06-20T19:12:44Z</time>
      </trkpt>
      <trkpt lat="50.653568" lon="6.410716">
        <ele>403.000000</ele>
        <time>2009-06-20T19:12:48Z</time>
      </trkpt>
      <trkpt lat="50.653721" lon="6.410851">
        <ele>403.000000</ele>
        <time>2009-06-20T19:12:55Z</time>
      </trkpt>
      <trkpt lat="50.653842" lon="6.411071">
        <ele>411.000000</ele>
        <time>2009-06-20T19:13:02Z</time>
      </trkpt>
      <trkpt lat="50.653937" lon="6.411276">
        <ele>405.000000</ele>
        <time>2009-06-20T19:13:09Z</time>
      </trkpt>
      <trkpt lat="50.654022" lon="6.411347">
        <ele>405.000000</ele>
        <time>2009-06-20T19:13:12Z</time>
      </trkpt>
      <trkpt lat="50.654026" lon="6.411347">
        <ele>405.000000</ele>
        <time>2009-06-20T19:13:13Z</time>
      </trkpt>
      <trkpt lat="50.654139" lon="6.411418">
        <ele>405.000000</ele>
        <time>2009-06-20T19:13:17Z</time>
      </trkpt>
      <trkpt lat="50.654242" lon="6.411467">
        <ele>405.000000</ele>
        <time>2009-06-20T19:13:22Z</time>
      </trkpt>
      <trkpt lat="50.654381" lon="6.411524">
        <ele>405.000000</ele>
        <time>2009-06-20T19:13:28Z</time>
      </trkpt>
      <trkpt lat="50.654386" lon="6.411524">
        <ele>405.000000</ele>
        <time>2009-06-20T19:13:28Z</time>
      </trkpt>
      <trkpt lat="50.654453" lon="6.411567">
        <ele>405.000000</ele>
        <time>2009-06-20T19:13:31Z</time>
      </trkpt>
      <trkpt lat="50.654507" lon="6.411715">
        <ele>405.000000</ele>
        <time>2009-06-20T19:13:35Z</time>
      </trkpt>
      <trkpt lat="50.654574" lon="6.411800">
        <ele>405.000000</ele>
        <time>2009-06-20T19:13:38Z</time>
      </trkpt>
      <trkpt lat="50.654660" lon="6.411864">
        <ele>418.000000</ele>
        <time>2009-06-20T19:13:42Z</time>
      </trkpt>
      <trkpt lat="50.654759" lon="6.411942">
        <ele>418.000000</ele>
        <time>2009-06-20T19:13:47Z</time>
      </trkpt>
      <trkpt lat="50.654839" lon="6.412006">
        <ele>418.000000</ele>
        <time>2009-06-20T19:13:50Z</time>
      </trkpt>
      <trkpt lat="50.654970" lon="6.412147">
        <ele>425.000000</ele>
        <time>2009-06-20T19:13:57Z</time>
      </trkpt>
      <trkpt lat="50.655118" lon="6.412268">
        <ele>425.000000</ele>
        <time>2009-06-20T19:14:03Z</time>
      </trkpt>
      <trkpt lat="50.655203" lon="6.412346">
        <ele>425.000000</ele>
        <time>2009-06-20T19:14:07Z</time>
      </trkpt>
      <trkpt lat="50.655208" lon="6.412473">
        <ele>425.000000</ele>
        <time>2009-06-20T19:14:10Z</time>
      </trkpt>
      <trkpt lat="50.655131" lon="6.412587">
        <ele>425.000000</ele>
        <time>2009-06-20T19:14:15Z</time>
      </trkpt>
      <trkpt lat="50.655001" lon="6.412743">
        <ele>425.000000</ele>
        <time>2009-06-20T19:14:21Z</time>
      </trkpt>
      <trkpt lat="50.654889" lon="6.412856">
        <ele>425.000000</ele>
        <time>2009-06-20T19:14:26Z</time>
      </trkpt>
      <trkpt lat="50.654781" lon="6.412976">
        <ele>432.000000</ele>
        <time>2009-06-20T19:14:32Z</time>
      </trkpt>
      <trkpt lat="50.654655" lon="6.413111">
        <ele>432.000000</ele>
        <time>2009-06-20T19:14:38Z</time>
      </trkpt>
      <trkpt lat="50.654570" lon="6.413302">
        <ele>429.000000</ele>
        <time>2009-06-20T19:14:44Z</time>
      </trkpt>
      <trkpt lat="50.654610" lon="6.413316">
        <ele>432.000000</ele>
        <time>2009-06-20T19:14:45Z</time>
      </trkpt>
      <trkpt lat="50.654691" lon="6.413316">
        <ele>432.000000</ele>
        <time>2009-06-20T19:14:49Z</time>
      </trkpt>
      <trkpt lat="50.654754" lon="6.413281">
        <ele>432.000000</ele>
        <time>2009-06-20T19:14:51Z</time>
      </trkpt>
      <trkpt lat="50.654826" lon="6.413253">
        <ele>432.000000</ele>
        <time>2009-06-20T19:14:54Z</time>
      </trkpt>
      <trkpt lat="50.654891" lon="6.413156">
        <ele>432.000000</ele>
        <time>2009-06-20T19:14:58Z</time>
      </trkpt>
      <trkpt lat="50.655099" lon="6.413037">
        <ele>432.000000</ele>
        <time>2009-06-20T19:15:07Z</time>
      </trkpt>
      <trkpt lat="50.655295" lon="6.412968">
        <ele>432.000000</ele>
        <time>2009-06-20T19:15:15Z</time>
      </trkpt>
      <trkpt lat="50.655419" lon="6.412959">
        <ele>437.000000</ele>
        <time>2009-06-20T19:15:20Z</time>
      </trkpt>
      <trkpt lat="50.655466" lon="6.412931">
        <ele>437.000000</ele>
        <time>2009-06-20T19:15:22Z</time>
      </trkpt>
      <trkpt lat="50.655772" lon="6.413215">
        <ele>437.000000</ele>
        <time>2009-06-20T19:15:36Z</time>
      </trkpt>
      <trkpt lat="50.656131" lon="6.413357">
        <ele>437.000000</ele>
        <time>2009-06-20T19:15:51Z</time>
      </trkpt>
      <trkpt lat="50.656670" lon="6.413413">
        <ele>439.000000</ele>
        <time>2009-06-20T19:16:12Z</time>
      </trkpt>
      <trkpt lat="50.656922" lon="6.413045">
        <ele>439.000000</ele>
        <time>2009-06-20T19:16:26Z</time>
      </trkpt>
      <trkpt lat="50.657155" lon="6.413016">
        <ele>438.000000</ele>
        <time>2009-06-20T19:16:36Z</time>
      </trkpt>
      <trkpt lat="50.657568" lon="6.412563">
        <ele>442.000000</ele>
        <time>2009-06-20T19:16:56Z</time>
      </trkpt>
      <trkpt lat="50.657910" lon="6.411798">
        <ele>446.000000</ele>
        <time>2009-06-20T19:17:19Z</time>
      </trkpt>
      <trkpt lat="50.658269" lon="6.411174">
        <ele>450.000000</ele>
        <time>2009-06-20T19:17:41Z</time>
      </trkpt>
      <trkpt lat="50.658592" lon="6.410636">
        <ele>450.000000</ele>
        <time>2009-06-20T19:18:00Z</time>
      </trkpt>
      <trkpt lat="50.658808" lon="6.410182">
        <ele>454.000000</ele>
        <time>2009-06-20T19:18:14Z</time>
      </trkpt>
      <trkpt lat="50.658898" lon="6.409417">
        <ele>456.000000</ele>
        <time>2009-06-20T19:18:34Z</time>
      </trkpt>
      <trkpt lat="50.659077" lon="6.408907">
        <ele>456.000000</ele>
        <time>2009-06-20T19:18:49Z</time>
      </trkpt>
      <trkpt lat="50.659221" lon="6.408340">
        <ele>458.000000</ele>
        <time>2009-06-20T19:19:04Z</time>
      </trkpt>
      <trkpt lat="50.659545" lon="6.408170">
        <ele>458.000000</ele>
        <time>2009-06-20T19:19:18Z</time>
      </trkpt>
      <trkpt lat="50.659922" lon="6.407887">
        <ele>458.000000</ele>
        <time>2009-06-20T19:19:34Z</time>
      </trkpt>
      <trkpt lat="50.660299" lon="6.407547">
        <ele>458.000000</ele>
        <time>2009-06-20T19:19:52Z</time>
      </trkpt>
      <trkpt lat="50.660676" lon="6.407008">
        <ele>458.000000</ele>
        <time>2009-06-20T19:20:12Z</time>
      </trkpt>
      <trkpt lat="50.660910" lon="6.406612">
        <ele>458.000000</ele>
        <time>2009-06-20T19:20:26Z</time>
      </trkpt>
      <trkpt lat="50.661126" lon="6.406470">
        <ele>458.000000</ele>
        <time>2009-06-20T19:20:35Z</time>
      </trkpt>
    </trkseg>
  </trk>

</gpx>
